<?xml version="1.0" encoding="UTF-8" standalone="no" ?>
<gpx xmlns="http://www.topografix.com/GPX/1/1" xmlns:xsi="http://www.w3.org/2001/XMLSchema-instance" xsi:schemaLocation="http://www.topografix.com/GPX/1/1 http://www.topografix.com/GPX/1/1/gpx.xsd" version="1.1" creator="VisuGPX - https://www.visugpx.com">
  <metadata>
    <name>rando Armeau 15-05-16</name>
    <desc><![CDATA[Belle petite randonnée de 12km]]></desc>
  </metadata>
  <trk>
    <name><![CDATA[2016-05-15 11:32:40]]></name>
    <trkseg>
      <trkpt lat="48.04524" lon="3.32292">
        <ele>131.84</ele>
        <time>2016-05-15T06:42:36Z</time>
      </trkpt>
      <trkpt lat="48.04544" lon="3.32276">
        <ele>111.65</ele>
        <time>2016-05-15T06:42:51Z</time>
      </trkpt>
      <trkpt lat="48.04555" lon="3.32286">
        <ele>100.11</ele>
        <time>2016-05-15T06:43:04Z</time>
      </trkpt>
      <trkpt lat="48.04555" lon="3.32289">
        <ele>98.19</ele>
        <time>2016-05-15T06:43:06Z</time>
      </trkpt>
      <trkpt lat="48.04557" lon="3.32306">
        <ele>93.39</ele>
        <time>2016-05-15T06:43:19Z</time>
      </trkpt>
      <trkpt lat="48.04565" lon="3.32327">
        <ele>86.18</ele>
        <time>2016-05-15T06:43:36Z</time>
      </trkpt>
      <trkpt lat="48.04571" lon="3.32332">
        <ele>82.33</ele>
        <time>2016-05-15T06:43:42Z</time>
      </trkpt>
      <trkpt lat="48.04589" lon="3.32339">
        <ele>73.68</ele>
        <time>2016-05-15T06:43:57Z</time>
      </trkpt>
      <trkpt lat="48.04595" lon="3.32345">
        <ele>74.64</ele>
        <time>2016-05-15T06:44:06Z</time>
      </trkpt>
      <trkpt lat="48.04606" lon="3.32368">
        <ele>72.72</ele>
        <time>2016-05-15T06:44:22Z</time>
      </trkpt>
      <trkpt lat="48.04619" lon="3.32392">
        <ele>70.79</ele>
        <time>2016-05-15T06:44:39Z</time>
      </trkpt>
      <trkpt lat="48.04632" lon="3.32426">
        <ele>71.27</ele>
        <time>2016-05-15T06:44:58Z</time>
      </trkpt>
      <trkpt lat="48.04633" lon="3.32434">
        <ele>70.79</ele>
        <time>2016-05-15T06:45:02Z</time>
      </trkpt>
      <trkpt lat="48.04626" lon="3.3244">
        <ele>69.83</ele>
        <time>2016-05-15T06:45:08Z</time>
      </trkpt>
      <trkpt lat="48.04607" lon="3.32462">
        <ele>76.08</ele>
        <time>2016-05-15T06:45:25Z</time>
      </trkpt>
      <trkpt lat="48.0459" lon="3.32472">
        <ele>78.97</ele>
        <time>2016-05-15T06:45:38Z</time>
      </trkpt>
      <trkpt lat="48.04569" lon="3.32489">
        <ele>86.18</ele>
        <time>2016-05-15T06:45:54Z</time>
      </trkpt>
      <trkpt lat="48.04559" lon="3.32488">
        <ele>90.5</ele>
        <time>2016-05-15T06:46:04Z</time>
      </trkpt>
      <trkpt lat="48.04539" lon="3.32507">
        <ele>93.39</ele>
        <time>2016-05-15T06:46:19Z</time>
      </trkpt>
      <trkpt lat="48.04526" lon="3.32513">
        <ele>94.83</ele>
        <time>2016-05-15T06:46:34Z</time>
      </trkpt>
      <trkpt lat="48.04505" lon="3.32533">
        <ele>93.87</ele>
        <time>2016-05-15T06:46:50Z</time>
      </trkpt>
      <trkpt lat="48.04496" lon="3.32552">
        <ele>94.35</ele>
        <time>2016-05-15T06:47:04Z</time>
      </trkpt>
      <trkpt lat="48.045" lon="3.32566">
        <ele>92.42</ele>
        <time>2016-05-15T06:47:19Z</time>
      </trkpt>
      <trkpt lat="48.04489" lon="3.32596">
        <ele>95.31</ele>
        <time>2016-05-15T06:47:34Z</time>
      </trkpt>
      <trkpt lat="48.0447" lon="3.32613">
        <ele>97.23</ele>
        <time>2016-05-15T06:47:51Z</time>
      </trkpt>
      <trkpt lat="48.04459" lon="3.32623">
        <ele>94.83</ele>
        <time>2016-05-15T06:48:07Z</time>
      </trkpt>
      <trkpt lat="48.04446" lon="3.32631">
        <ele>93.87</ele>
        <time>2016-05-15T06:48:20Z</time>
      </trkpt>
      <trkpt lat="48.04426" lon="3.32644">
        <ele>93.87</ele>
        <time>2016-05-15T06:48:37Z</time>
      </trkpt>
      <trkpt lat="48.04408" lon="3.32659">
        <ele>100.11</ele>
        <time>2016-05-15T06:48:53Z</time>
      </trkpt>
      <trkpt lat="48.0439" lon="3.32673">
        <ele>103.48</ele>
        <time>2016-05-15T06:49:08Z</time>
      </trkpt>
      <trkpt lat="48.04371" lon="3.32689">
        <ele>102.52</ele>
        <time>2016-05-15T06:49:25Z</time>
      </trkpt>
      <trkpt lat="48.04367" lon="3.32693">
        <ele>102.04</ele>
        <time>2016-05-15T06:49:29Z</time>
      </trkpt>
      <trkpt lat="48.04353" lon="3.32703">
        <ele>103</ele>
        <time>2016-05-15T06:49:40Z</time>
      </trkpt>
      <trkpt lat="48.04339" lon="3.32714">
        <ele>104.44</ele>
        <time>2016-05-15T06:49:54Z</time>
      </trkpt>
      <trkpt lat="48.04319" lon="3.32726">
        <ele>101.56</ele>
        <time>2016-05-15T06:50:12Z</time>
      </trkpt>
      <trkpt lat="48.04298" lon="3.32738">
        <ele>101.56</ele>
        <time>2016-05-15T06:50:30Z</time>
      </trkpt>
      <trkpt lat="48.0428" lon="3.32753">
        <ele>104.44</ele>
        <time>2016-05-15T06:50:47Z</time>
      </trkpt>
      <trkpt lat="48.0426" lon="3.32773">
        <ele>105.88</ele>
        <time>2016-05-15T06:51:03Z</time>
      </trkpt>
      <trkpt lat="48.04242" lon="3.32791">
        <ele>103</ele>
        <time>2016-05-15T06:51:22Z</time>
      </trkpt>
      <trkpt lat="48.04226" lon="3.32806">
        <ele>103.96</ele>
        <time>2016-05-15T06:51:38Z</time>
      </trkpt>
      <trkpt lat="48.0421" lon="3.32823">
        <ele>103</ele>
        <time>2016-05-15T06:51:55Z</time>
      </trkpt>
      <trkpt lat="48.04197" lon="3.32844">
        <ele>103.48</ele>
        <time>2016-05-15T06:52:10Z</time>
      </trkpt>
      <trkpt lat="48.04182" lon="3.32859">
        <ele>103</ele>
        <time>2016-05-15T06:52:26Z</time>
      </trkpt>
      <trkpt lat="48.04166" lon="3.32869">
        <ele>103.96</ele>
        <time>2016-05-15T06:52:41Z</time>
      </trkpt>
      <trkpt lat="48.04164" lon="3.3287">
        <ele>103.96</ele>
        <time>2016-05-15T06:52:44Z</time>
      </trkpt>
      <trkpt lat="48.04159" lon="3.3287">
        <ele>104.44</ele>
        <time>2016-05-15T06:52:48Z</time>
      </trkpt>
      <trkpt lat="48.04139" lon="3.32879">
        <ele>108.29</ele>
        <time>2016-05-15T06:53:03Z</time>
      </trkpt>
      <trkpt lat="48.04118" lon="3.32877">
        <ele>102.52</ele>
        <time>2016-05-15T06:53:21Z</time>
      </trkpt>
      <trkpt lat="48.04102" lon="3.32885">
        <ele>103.96</ele>
        <time>2016-05-15T06:53:36Z</time>
      </trkpt>
      <trkpt lat="48.04085" lon="3.32893">
        <ele>101.08</ele>
        <time>2016-05-15T06:53:51Z</time>
      </trkpt>
      <trkpt lat="48.0407" lon="3.32903">
        <ele>100.6</ele>
        <time>2016-05-15T06:54:02Z</time>
      </trkpt>
      <trkpt lat="48.04048" lon="3.32907">
        <ele>93.87</ele>
        <time>2016-05-15T06:54:20Z</time>
      </trkpt>
      <trkpt lat="48.04028" lon="3.32911">
        <ele>91.94</ele>
        <time>2016-05-15T06:54:37Z</time>
      </trkpt>
      <trkpt lat="48.04009" lon="3.32903">
        <ele>89.54</ele>
        <time>2016-05-15T06:54:54Z</time>
      </trkpt>
      <trkpt lat="48.0399" lon="3.32907">
        <ele>90.98</ele>
        <time>2016-05-15T06:55:09Z</time>
      </trkpt>
      <trkpt lat="48.03975" lon="3.32908">
        <ele>91.94</ele>
        <time>2016-05-15T06:55:22Z</time>
      </trkpt>
      <trkpt lat="48.03955" lon="3.32912">
        <ele>93.87</ele>
        <time>2016-05-15T06:55:36Z</time>
      </trkpt>
      <trkpt lat="48.0393" lon="3.32917">
        <ele>97.23</ele>
        <time>2016-05-15T06:55:52Z</time>
      </trkpt>
      <trkpt lat="48.03913" lon="3.32918">
        <ele>95.79</ele>
        <time>2016-05-15T06:56:04Z</time>
      </trkpt>
      <trkpt lat="48.03908" lon="3.32915">
        <ele>96.27</ele>
        <time>2016-05-15T06:56:09Z</time>
      </trkpt>
      <trkpt lat="48.03889" lon="3.32916">
        <ele>100.11</ele>
        <time>2016-05-15T06:56:23Z</time>
      </trkpt>
      <trkpt lat="48.03888" lon="3.32916">
        <ele>100.6</ele>
        <time>2016-05-15T06:56:24Z</time>
      </trkpt>
      <trkpt lat="48.03867" lon="3.32911">
        <ele>104.92</ele>
        <time>2016-05-15T06:56:39Z</time>
      </trkpt>
      <trkpt lat="48.03854" lon="3.32909">
        <ele>104.44</ele>
        <time>2016-05-15T06:56:50Z</time>
      </trkpt>
      <trkpt lat="48.0384" lon="3.32904">
        <ele>103.96</ele>
        <time>2016-05-15T06:57:01Z</time>
      </trkpt>
      <trkpt lat="48.03836" lon="3.32901">
        <ele>103.48</ele>
        <time>2016-05-15T06:57:05Z</time>
      </trkpt>
      <trkpt lat="48.03822" lon="3.32898">
        <ele>103.48</ele>
        <time>2016-05-15T06:57:15Z</time>
      </trkpt>
      <trkpt lat="48.03817" lon="3.32897">
        <ele>103.48</ele>
        <time>2016-05-15T06:57:19Z</time>
      </trkpt>
      <trkpt lat="48.03799" lon="3.32896">
        <ele>100.11</ele>
        <time>2016-05-15T06:57:33Z</time>
      </trkpt>
      <trkpt lat="48.03785" lon="3.32894">
        <ele>95.79</ele>
        <time>2016-05-15T06:57:47Z</time>
      </trkpt>
      <trkpt lat="48.03776" lon="3.32895">
        <ele>94.35</ele>
        <time>2016-05-15T06:57:54Z</time>
      </trkpt>
      <trkpt lat="48.0376" lon="3.3289">
        <ele>95.79</ele>
        <time>2016-05-15T06:58:07Z</time>
      </trkpt>
      <trkpt lat="48.03744" lon="3.32893">
        <ele>98.67</ele>
        <time>2016-05-15T06:58:20Z</time>
      </trkpt>
      <trkpt lat="48.03722" lon="3.32888">
        <ele>100.11</ele>
        <time>2016-05-15T06:58:37Z</time>
      </trkpt>
      <trkpt lat="48.03703" lon="3.32883">
        <ele>99.63</ele>
        <time>2016-05-15T06:58:52Z</time>
      </trkpt>
      <trkpt lat="48.03681" lon="3.32874">
        <ele>94.83</ele>
        <time>2016-05-15T06:59:09Z</time>
      </trkpt>
      <trkpt lat="48.0366" lon="3.32869">
        <ele>95.79</ele>
        <time>2016-05-15T06:59:26Z</time>
      </trkpt>
      <trkpt lat="48.0364" lon="3.32863">
        <ele>94.83</ele>
        <time>2016-05-15T06:59:41Z</time>
      </trkpt>
      <trkpt lat="48.03636" lon="3.32864">
        <ele>92.9</ele>
        <time>2016-05-15T06:59:58Z</time>
      </trkpt>
      <trkpt lat="48.03631" lon="3.32857">
        <ele>96.75</ele>
        <time>2016-05-15T07:00:11Z</time>
      </trkpt>
      <trkpt lat="48.03612" lon="3.3285">
        <ele>94.83</ele>
        <time>2016-05-15T07:00:28Z</time>
      </trkpt>
      <trkpt lat="48.03593" lon="3.32841">
        <ele>95.79</ele>
        <time>2016-05-15T07:00:42Z</time>
      </trkpt>
      <trkpt lat="48.03578" lon="3.32834">
        <ele>97.71</ele>
        <time>2016-05-15T07:00:54Z</time>
      </trkpt>
      <trkpt lat="48.03558" lon="3.32829">
        <ele>101.56</ele>
        <time>2016-05-15T07:01:10Z</time>
      </trkpt>
      <trkpt lat="48.03547" lon="3.32826">
        <ele>101.08</ele>
        <time>2016-05-15T07:01:20Z</time>
      </trkpt>
      <trkpt lat="48.03529" lon="3.32823">
        <ele>103.48</ele>
        <time>2016-05-15T07:01:34Z</time>
      </trkpt>
      <trkpt lat="48.03511" lon="3.32817">
        <ele>101.56</ele>
        <time>2016-05-15T07:01:49Z</time>
      </trkpt>
      <trkpt lat="48.03508" lon="3.32815">
        <ele>101.08</ele>
        <time>2016-05-15T07:01:52Z</time>
      </trkpt>
      <trkpt lat="48.03487" lon="3.32809">
        <ele>102.04</ele>
        <time>2016-05-15T07:02:08Z</time>
      </trkpt>
      <trkpt lat="48.03466" lon="3.32805">
        <ele>105.88</ele>
        <time>2016-05-15T07:02:25Z</time>
      </trkpt>
      <trkpt lat="48.03451" lon="3.32802">
        <ele>106.84</ele>
        <time>2016-05-15T07:02:39Z</time>
      </trkpt>
      <trkpt lat="48.03445" lon="3.32799">
        <ele>107.81</ele>
        <time>2016-05-15T07:02:45Z</time>
      </trkpt>
      <trkpt lat="48.0344" lon="3.32797">
        <ele>108.29</ele>
        <time>2016-05-15T07:02:50Z</time>
      </trkpt>
      <trkpt lat="48.03426" lon="3.32796">
        <ele>110.69</ele>
        <time>2016-05-15T07:03:02Z</time>
      </trkpt>
      <trkpt lat="48.03424" lon="3.32797">
        <ele>110.69</ele>
        <time>2016-05-15T07:03:04Z</time>
      </trkpt>
      <trkpt lat="48.03414" lon="3.32788">
        <ele>109.25</ele>
        <time>2016-05-15T07:03:14Z</time>
      </trkpt>
      <trkpt lat="48.03403" lon="3.32782">
        <ele>107.32</ele>
        <time>2016-05-15T07:03:23Z</time>
      </trkpt>
      <trkpt lat="48.03398" lon="3.32777">
        <ele>104.92</ele>
        <time>2016-05-15T07:03:28Z</time>
      </trkpt>
      <trkpt lat="48.03375" lon="3.32767">
        <ele>100.6</ele>
        <time>2016-05-15T07:03:46Z</time>
      </trkpt>
      <trkpt lat="48.03363" lon="3.3276">
        <ele>102.52</ele>
        <time>2016-05-15T07:03:58Z</time>
      </trkpt>
      <trkpt lat="48.0335" lon="3.3275">
        <ele>103.48</ele>
        <time>2016-05-15T07:04:10Z</time>
      </trkpt>
      <trkpt lat="48.03332" lon="3.32737">
        <ele>102.52</ele>
        <time>2016-05-15T07:04:27Z</time>
      </trkpt>
      <trkpt lat="48.0332" lon="3.32732">
        <ele>102.04</ele>
        <time>2016-05-15T07:04:38Z</time>
      </trkpt>
      <trkpt lat="48.03314" lon="3.32733">
        <ele>102.04</ele>
        <time>2016-05-15T07:04:42Z</time>
      </trkpt>
      <trkpt lat="48.03311" lon="3.32735">
        <ele>102.04</ele>
        <time>2016-05-15T07:04:45Z</time>
      </trkpt>
      <trkpt lat="48.03309" lon="3.32749">
        <ele>105.4</ele>
        <time>2016-05-15T07:04:57Z</time>
      </trkpt>
      <trkpt lat="48.03305" lon="3.32764">
        <ele>109.25</ele>
        <time>2016-05-15T07:05:10Z</time>
      </trkpt>
      <trkpt lat="48.03302" lon="3.32786">
        <ele>113.09</ele>
        <time>2016-05-15T07:05:24Z</time>
      </trkpt>
      <trkpt lat="48.033" lon="3.32803">
        <ele>112.13</ele>
        <time>2016-05-15T07:05:39Z</time>
      </trkpt>
      <trkpt lat="48.03297" lon="3.32816">
        <ele>117.9</ele>
        <time>2016-05-15T07:05:53Z</time>
      </trkpt>
      <trkpt lat="48.03293" lon="3.32832">
        <ele>123.19</ele>
        <time>2016-05-15T07:06:08Z</time>
      </trkpt>
      <trkpt lat="48.03288" lon="3.32842">
        <ele>124.63</ele>
        <time>2016-05-15T07:06:20Z</time>
      </trkpt>
      <trkpt lat="48.03281" lon="3.32844">
        <ele>126.07</ele>
        <time>2016-05-15T07:06:32Z</time>
      </trkpt>
      <trkpt lat="48.0327" lon="3.32832">
        <ele>125.59</ele>
        <time>2016-05-15T07:06:47Z</time>
      </trkpt>
      <trkpt lat="48.03257" lon="3.32817">
        <ele>126.07</ele>
        <time>2016-05-15T07:07:04Z</time>
      </trkpt>
      <trkpt lat="48.03244" lon="3.32807">
        <ele>124.15</ele>
        <time>2016-05-15T07:07:18Z</time>
      </trkpt>
      <trkpt lat="48.03239" lon="3.32796">
        <ele>124.15</ele>
        <time>2016-05-15T07:07:30Z</time>
      </trkpt>
      <trkpt lat="48.03229" lon="3.32785">
        <ele>123.67</ele>
        <time>2016-05-15T07:07:42Z</time>
      </trkpt>
      <trkpt lat="48.03218" lon="3.32782">
        <ele>123.19</ele>
        <time>2016-05-15T07:07:54Z</time>
      </trkpt>
      <trkpt lat="48.03207" lon="3.3278">
        <ele>122.22</ele>
        <time>2016-05-15T07:08:07Z</time>
      </trkpt>
      <trkpt lat="48.03195" lon="3.32779">
        <ele>124.63</ele>
        <time>2016-05-15T07:08:20Z</time>
      </trkpt>
      <trkpt lat="48.03182" lon="3.32769">
        <ele>123.67</ele>
        <time>2016-05-15T07:08:35Z</time>
      </trkpt>
      <trkpt lat="48.0317" lon="3.32769">
        <ele>124.15</ele>
        <time>2016-05-15T07:08:51Z</time>
      </trkpt>
      <trkpt lat="48.03159" lon="3.32761">
        <ele>125.59</ele>
        <time>2016-05-15T07:09:05Z</time>
      </trkpt>
      <trkpt lat="48.03147" lon="3.32753">
        <ele>124.15</ele>
        <time>2016-05-15T07:09:20Z</time>
      </trkpt>
      <trkpt lat="48.03133" lon="3.32744">
        <ele>121.26</ele>
        <time>2016-05-15T07:09:35Z</time>
      </trkpt>
      <trkpt lat="48.03123" lon="3.32734">
        <ele>118.86</ele>
        <time>2016-05-15T07:09:46Z</time>
      </trkpt>
      <trkpt lat="48.0312" lon="3.32733">
        <ele>118.38</ele>
        <time>2016-05-15T07:09:49Z</time>
      </trkpt>
      <trkpt lat="48.03107" lon="3.32725">
        <ele>116.46</ele>
        <time>2016-05-15T07:10:03Z</time>
      </trkpt>
      <trkpt lat="48.03092" lon="3.32723">
        <ele>115.5</ele>
        <time>2016-05-15T07:10:17Z</time>
      </trkpt>
      <trkpt lat="48.03081" lon="3.32718">
        <ele>115.5</ele>
        <time>2016-05-15T07:10:30Z</time>
      </trkpt>
      <trkpt lat="48.03067" lon="3.32713">
        <ele>115.98</ele>
        <time>2016-05-15T07:10:44Z</time>
      </trkpt>
      <trkpt lat="48.03058" lon="3.32706">
        <ele>118.86</ele>
        <time>2016-05-15T07:10:58Z</time>
      </trkpt>
      <trkpt lat="48.03056" lon="3.32698">
        <ele>120.3</ele>
        <time>2016-05-15T07:11:04Z</time>
      </trkpt>
      <trkpt lat="48.03057" lon="3.32682">
        <ele>123.19</ele>
        <time>2016-05-15T07:11:13Z</time>
      </trkpt>
      <trkpt lat="48.03045" lon="3.32666">
        <ele>120.3</ele>
        <time>2016-05-15T07:11:29Z</time>
      </trkpt>
      <trkpt lat="48.03036" lon="3.32659">
        <ele>120.78</ele>
        <time>2016-05-15T07:11:39Z</time>
      </trkpt>
      <trkpt lat="48.03033" lon="3.32655">
        <ele>120.78</ele>
        <time>2016-05-15T07:11:42Z</time>
      </trkpt>
      <trkpt lat="48.03021" lon="3.32641">
        <ele>125.11</ele>
        <time>2016-05-15T07:11:58Z</time>
      </trkpt>
      <trkpt lat="48.03005" lon="3.32624">
        <ele>125.11</ele>
        <time>2016-05-15T07:12:15Z</time>
      </trkpt>
      <trkpt lat="48.02991" lon="3.32607">
        <ele>125.11</ele>
        <time>2016-05-15T07:12:29Z</time>
      </trkpt>
      <trkpt lat="48.02978" lon="3.32595">
        <ele>124.15</ele>
        <time>2016-05-15T07:12:42Z</time>
      </trkpt>
      <trkpt lat="48.02971" lon="3.32585">
        <ele>123.19</ele>
        <time>2016-05-15T07:12:50Z</time>
      </trkpt>
      <trkpt lat="48.02963" lon="3.32574">
        <ele>121.74</ele>
        <time>2016-05-15T07:12:58Z</time>
      </trkpt>
      <trkpt lat="48.02949" lon="3.32553">
        <ele>117.42</ele>
        <time>2016-05-15T07:13:15Z</time>
      </trkpt>
      <trkpt lat="48.02933" lon="3.32529">
        <ele>112.61</ele>
        <time>2016-05-15T07:13:33Z</time>
      </trkpt>
      <trkpt lat="48.02921" lon="3.3251">
        <ele>112.13</ele>
        <time>2016-05-15T07:13:47Z</time>
      </trkpt>
      <trkpt lat="48.02916" lon="3.32501">
        <ele>111.17</ele>
        <time>2016-05-15T07:13:54Z</time>
      </trkpt>
      <trkpt lat="48.02905" lon="3.32481">
        <ele>106.36</ele>
        <time>2016-05-15T07:14:08Z</time>
      </trkpt>
      <trkpt lat="48.02892" lon="3.32458">
        <ele>99.63</ele>
        <time>2016-05-15T07:14:25Z</time>
      </trkpt>
      <trkpt lat="48.02875" lon="3.32433">
        <ele>98.67</ele>
        <time>2016-05-15T07:14:43Z</time>
      </trkpt>
      <trkpt lat="48.02861" lon="3.32412">
        <ele>99.63</ele>
        <time>2016-05-15T07:14:58Z</time>
      </trkpt>
      <trkpt lat="48.02849" lon="3.3239">
        <ele>99.15</ele>
        <time>2016-05-15T07:15:14Z</time>
      </trkpt>
      <trkpt lat="48.02837" lon="3.32369">
        <ele>95.31</ele>
        <time>2016-05-15T07:15:30Z</time>
      </trkpt>
      <trkpt lat="48.0282" lon="3.32343">
        <ele>96.27</ele>
        <time>2016-05-15T07:15:47Z</time>
      </trkpt>
      <trkpt lat="48.0281" lon="3.32324">
        <ele>94.35</ele>
        <time>2016-05-15T07:16:02Z</time>
      </trkpt>
      <trkpt lat="48.02792" lon="3.32305">
        <ele>101.08</ele>
        <time>2016-05-15T07:16:18Z</time>
      </trkpt>
      <trkpt lat="48.02781" lon="3.32286">
        <ele>101.08</ele>
        <time>2016-05-15T07:16:32Z</time>
      </trkpt>
      <trkpt lat="48.02769" lon="3.32266">
        <ele>98.67</ele>
        <time>2016-05-15T07:16:47Z</time>
      </trkpt>
      <trkpt lat="48.02762" lon="3.32255">
        <ele>95.79</ele>
        <time>2016-05-15T07:16:54Z</time>
      </trkpt>
      <trkpt lat="48.02749" lon="3.32233">
        <ele>97.23</ele>
        <time>2016-05-15T07:17:10Z</time>
      </trkpt>
      <trkpt lat="48.02745" lon="3.32224">
        <ele>98.19</ele>
        <time>2016-05-15T07:17:16Z</time>
      </trkpt>
      <trkpt lat="48.02742" lon="3.32198">
        <ele>94.83</ele>
        <time>2016-05-15T07:17:31Z</time>
      </trkpt>
      <trkpt lat="48.02735" lon="3.32173">
        <ele>93.39</ele>
        <time>2016-05-15T07:17:46Z</time>
      </trkpt>
      <trkpt lat="48.02723" lon="3.32153">
        <ele>95.31</ele>
        <time>2016-05-15T07:18:01Z</time>
      </trkpt>
      <trkpt lat="48.02709" lon="3.32128">
        <ele>94.83</ele>
        <time>2016-05-15T07:18:16Z</time>
      </trkpt>
      <trkpt lat="48.02696" lon="3.32112">
        <ele>95.31</ele>
        <time>2016-05-15T07:18:30Z</time>
      </trkpt>
      <trkpt lat="48.02681" lon="3.32087">
        <ele>98.19</ele>
        <time>2016-05-15T07:18:47Z</time>
      </trkpt>
      <trkpt lat="48.02672" lon="3.32073">
        <ele>102.52</ele>
        <time>2016-05-15T07:18:59Z</time>
      </trkpt>
      <trkpt lat="48.02661" lon="3.32055">
        <ele>102.04</ele>
        <time>2016-05-15T07:19:14Z</time>
      </trkpt>
      <trkpt lat="48.02649" lon="3.3203">
        <ele>102.52</ele>
        <time>2016-05-15T07:19:28Z</time>
      </trkpt>
      <trkpt lat="48.02648" lon="3.32028">
        <ele>102.52</ele>
        <time>2016-05-15T07:19:30Z</time>
      </trkpt>
      <trkpt lat="48.02645" lon="3.32021">
        <ele>103.96</ele>
        <time>2016-05-15T07:19:35Z</time>
      </trkpt>
      <trkpt lat="48.02641" lon="3.32009">
        <ele>105.4</ele>
        <time>2016-05-15T07:19:43Z</time>
      </trkpt>
      <trkpt lat="48.02628" lon="3.31987">
        <ele>103.48</ele>
        <time>2016-05-15T07:20:01Z</time>
      </trkpt>
      <trkpt lat="48.02618" lon="3.31967">
        <ele>100.6</ele>
        <time>2016-05-15T07:20:15Z</time>
      </trkpt>
      <trkpt lat="48.02613" lon="3.31958">
        <ele>101.08</ele>
        <time>2016-05-15T07:20:21Z</time>
      </trkpt>
      <trkpt lat="48.02597" lon="3.31935">
        <ele>105.88</ele>
        <time>2016-05-15T07:20:39Z</time>
      </trkpt>
      <trkpt lat="48.02589" lon="3.31919">
        <ele>107.81</ele>
        <time>2016-05-15T07:20:49Z</time>
      </trkpt>
      <trkpt lat="48.02584" lon="3.31911">
        <ele>109.73</ele>
        <time>2016-05-15T07:20:56Z</time>
      </trkpt>
      <trkpt lat="48.02575" lon="3.31893">
        <ele>110.21</ele>
        <time>2016-05-15T07:21:08Z</time>
      </trkpt>
      <trkpt lat="48.02569" lon="3.31875">
        <ele>111.17</ele>
        <time>2016-05-15T07:21:21Z</time>
      </trkpt>
      <trkpt lat="48.02566" lon="3.31859">
        <ele>112.13</ele>
        <time>2016-05-15T07:21:31Z</time>
      </trkpt>
      <trkpt lat="48.02556" lon="3.31841">
        <ele>112.61</ele>
        <time>2016-05-15T07:21:44Z</time>
      </trkpt>
      <trkpt lat="48.02543" lon="3.31815">
        <ele>111.17</ele>
        <time>2016-05-15T07:22:00Z</time>
      </trkpt>
      <trkpt lat="48.02535" lon="3.31802">
        <ele>111.17</ele>
        <time>2016-05-15T07:22:10Z</time>
      </trkpt>
      <trkpt lat="48.02527" lon="3.31789">
        <ele>111.17</ele>
        <time>2016-05-15T07:22:19Z</time>
      </trkpt>
      <trkpt lat="48.02517" lon="3.31768">
        <ele>114.05</ele>
        <time>2016-05-15T07:22:35Z</time>
      </trkpt>
      <trkpt lat="48.02508" lon="3.31742">
        <ele>113.57</ele>
        <time>2016-05-15T07:22:50Z</time>
      </trkpt>
      <trkpt lat="48.02496" lon="3.31717">
        <ele>111.65</ele>
        <time>2016-05-15T07:23:05Z</time>
      </trkpt>
      <trkpt lat="48.02484" lon="3.31703">
        <ele>110.69</ele>
        <time>2016-05-15T07:23:17Z</time>
      </trkpt>
      <trkpt lat="48.02478" lon="3.3169">
        <ele>110.21</ele>
        <time>2016-05-15T07:23:28Z</time>
      </trkpt>
      <trkpt lat="48.02459" lon="3.31673">
        <ele>109.73</ele>
        <time>2016-05-15T07:23:44Z</time>
      </trkpt>
      <trkpt lat="48.02444" lon="3.31661">
        <ele>109.73</ele>
        <time>2016-05-15T07:23:59Z</time>
      </trkpt>
      <trkpt lat="48.02432" lon="3.31645">
        <ele>110.69</ele>
        <time>2016-05-15T07:24:14Z</time>
      </trkpt>
      <trkpt lat="48.02416" lon="3.31628">
        <ele>110.21</ele>
        <time>2016-05-15T07:24:30Z</time>
      </trkpt>
      <trkpt lat="48.02406" lon="3.31615">
        <ele>109.73</ele>
        <time>2016-05-15T07:24:46Z</time>
      </trkpt>
      <trkpt lat="48.02403" lon="3.3161">
        <ele>110.21</ele>
        <time>2016-05-15T07:24:52Z</time>
      </trkpt>
      <trkpt lat="48.02392" lon="3.31595">
        <ele>108.77</ele>
        <time>2016-05-15T07:25:04Z</time>
      </trkpt>
      <trkpt lat="48.02372" lon="3.31573">
        <ele>106.84</ele>
        <time>2016-05-15T07:25:23Z</time>
      </trkpt>
      <trkpt lat="48.02358" lon="3.31557">
        <ele>104.92</ele>
        <time>2016-05-15T07:25:38Z</time>
      </trkpt>
      <trkpt lat="48.02343" lon="3.31541">
        <ele>103.48</ele>
        <time>2016-05-15T07:25:53Z</time>
      </trkpt>
      <trkpt lat="48.02329" lon="3.31546">
        <ele>102.04</ele>
        <time>2016-05-15T07:26:05Z</time>
      </trkpt>
      <trkpt lat="48.02317" lon="3.31561">
        <ele>102.52</ele>
        <time>2016-05-15T07:26:19Z</time>
      </trkpt>
      <trkpt lat="48.02305" lon="3.31578">
        <ele>102.04</ele>
        <time>2016-05-15T07:26:35Z</time>
      </trkpt>
      <trkpt lat="48.02291" lon="3.31596">
        <ele>100.11</ele>
        <time>2016-05-15T07:26:52Z</time>
      </trkpt>
      <trkpt lat="48.02285" lon="3.316">
        <ele>101.08</ele>
        <time>2016-05-15T07:26:57Z</time>
      </trkpt>
      <trkpt lat="48.02271" lon="3.31619">
        <ele>102.52</ele>
        <time>2016-05-15T07:27:13Z</time>
      </trkpt>
      <trkpt lat="48.02263" lon="3.31632">
        <ele>102.04</ele>
        <time>2016-05-15T07:27:23Z</time>
      </trkpt>
      <trkpt lat="48.02253" lon="3.31649">
        <ele>104.44</ele>
        <time>2016-05-15T07:27:36Z</time>
      </trkpt>
      <trkpt lat="48.02239" lon="3.31673">
        <ele>103</ele>
        <time>2016-05-15T07:27:54Z</time>
      </trkpt>
      <trkpt lat="48.0223" lon="3.31688">
        <ele>103.96</ele>
        <time>2016-05-15T07:28:05Z</time>
      </trkpt>
      <trkpt lat="48.02219" lon="3.31708">
        <ele>105.88</ele>
        <time>2016-05-15T07:28:20Z</time>
      </trkpt>
      <trkpt lat="48.02207" lon="3.31726">
        <ele>106.84</ele>
        <time>2016-05-15T07:28:35Z</time>
      </trkpt>
      <trkpt lat="48.02194" lon="3.31752">
        <ele>108.77</ele>
        <time>2016-05-15T07:28:52Z</time>
      </trkpt>
      <trkpt lat="48.02193" lon="3.31753">
        <ele>106.84</ele>
        <time>2016-05-15T07:29:02Z</time>
      </trkpt>
      <trkpt lat="48.0219" lon="3.31758">
        <ele>106.84</ele>
        <time>2016-05-15T07:29:06Z</time>
      </trkpt>
      <trkpt lat="48.0218" lon="3.31774">
        <ele>106.84</ele>
        <time>2016-05-15T07:29:18Z</time>
      </trkpt>
      <trkpt lat="48.02175" lon="3.31778">
        <ele>107.81</ele>
        <time>2016-05-15T07:29:24Z</time>
      </trkpt>
      <trkpt lat="48.02159" lon="3.31787">
        <ele>109.25</ele>
        <time>2016-05-15T07:29:40Z</time>
      </trkpt>
      <trkpt lat="48.02157" lon="3.31788">
        <ele>109.25</ele>
        <time>2016-05-15T07:29:43Z</time>
      </trkpt>
      <trkpt lat="48.02149" lon="3.31793">
        <ele>110.21</ele>
        <time>2016-05-15T07:29:50Z</time>
      </trkpt>
      <trkpt lat="48.02132" lon="3.31804">
        <ele>111.17</ele>
        <time>2016-05-15T07:30:07Z</time>
      </trkpt>
      <trkpt lat="48.0212" lon="3.31811">
        <ele>111.17</ele>
        <time>2016-05-15T07:30:20Z</time>
      </trkpt>
      <trkpt lat="48.02105" lon="3.31817">
        <ele>111.17</ele>
        <time>2016-05-15T07:30:36Z</time>
      </trkpt>
      <trkpt lat="48.02091" lon="3.3182">
        <ele>110.69</ele>
        <time>2016-05-15T07:30:52Z</time>
      </trkpt>
      <trkpt lat="48.0209" lon="3.31821">
        <ele>110.69</ele>
        <time>2016-05-15T07:30:53Z</time>
      </trkpt>
      <trkpt lat="48.02079" lon="3.31825">
        <ele>110.69</ele>
        <time>2016-05-15T07:31:07Z</time>
      </trkpt>
      <trkpt lat="48.02076" lon="3.31827">
        <ele>111.65</ele>
        <time>2016-05-15T07:31:10Z</time>
      </trkpt>
      <trkpt lat="48.0206" lon="3.31836">
        <ele>113.09</ele>
        <time>2016-05-15T07:31:25Z</time>
      </trkpt>
      <trkpt lat="48.02049" lon="3.31844">
        <ele>115.98</ele>
        <time>2016-05-15T07:31:40Z</time>
      </trkpt>
      <trkpt lat="48.02041" lon="3.31856">
        <ele>117.42</ele>
        <time>2016-05-15T07:31:55Z</time>
      </trkpt>
      <trkpt lat="48.02039" lon="3.31858">
        <ele>117.9</ele>
        <time>2016-05-15T07:31:58Z</time>
      </trkpt>
      <trkpt lat="48.02031" lon="3.31869">
        <ele>118.86</ele>
        <time>2016-05-15T07:32:07Z</time>
      </trkpt>
      <trkpt lat="48.02023" lon="3.31889">
        <ele>124.63</ele>
        <time>2016-05-15T07:32:21Z</time>
      </trkpt>
      <trkpt lat="48.02016" lon="3.31903">
        <ele>125.59</ele>
        <time>2016-05-15T07:32:34Z</time>
      </trkpt>
      <trkpt lat="48.02006" lon="3.31917">
        <ele>126.07</ele>
        <time>2016-05-15T07:32:50Z</time>
      </trkpt>
      <trkpt lat="48.01997" lon="3.31927">
        <ele>126.07</ele>
        <time>2016-05-15T07:33:02Z</time>
      </trkpt>
      <trkpt lat="48.01994" lon="3.31928">
        <ele>125.59</ele>
        <time>2016-05-15T07:33:04Z</time>
      </trkpt>
      <trkpt lat="48.01982" lon="3.3194">
        <ele>126.55</ele>
        <time>2016-05-15T07:33:19Z</time>
      </trkpt>
      <trkpt lat="48.01971" lon="3.31956">
        <ele>127.51</ele>
        <time>2016-05-15T07:33:34Z</time>
      </trkpt>
      <trkpt lat="48.01966" lon="3.31967">
        <ele>127.51</ele>
        <time>2016-05-15T07:33:49Z</time>
      </trkpt>
      <trkpt lat="48.01968" lon="3.31979">
        <ele>128.47</ele>
        <time>2016-05-15T07:34:05Z</time>
      </trkpt>
      <trkpt lat="48.0197" lon="3.31995">
        <ele>136.16</ele>
        <time>2016-05-15T07:34:18Z</time>
      </trkpt>
      <trkpt lat="48.01972" lon="3.31997">
        <ele>137.61</ele>
        <time>2016-05-15T07:34:21Z</time>
      </trkpt>
      <trkpt lat="48.01979" lon="3.32011">
        <ele>140.97</ele>
        <time>2016-05-15T07:34:37Z</time>
      </trkpt>
      <trkpt lat="48.01991" lon="3.32021">
        <ele>145.78</ele>
        <time>2016-05-15T07:34:50Z</time>
      </trkpt>
      <trkpt lat="48.01994" lon="3.32037">
        <ele>149.14</ele>
        <time>2016-05-15T07:35:03Z</time>
      </trkpt>
      <trkpt lat="48.01989" lon="3.32054">
        <ele>151.54</ele>
        <time>2016-05-15T07:35:16Z</time>
      </trkpt>
      <trkpt lat="48.01984" lon="3.32074">
        <ele>152.99</ele>
        <time>2016-05-15T07:35:30Z</time>
      </trkpt>
      <trkpt lat="48.01976" lon="3.32095">
        <ele>153.95</ele>
        <time>2016-05-15T07:35:43Z</time>
      </trkpt>
      <trkpt lat="48.01971" lon="3.32111">
        <ele>154.91</ele>
        <time>2016-05-15T07:35:57Z</time>
      </trkpt>
      <trkpt lat="48.01967" lon="3.32128">
        <ele>155.39</ele>
        <time>2016-05-15T07:36:12Z</time>
      </trkpt>
      <trkpt lat="48.01965" lon="3.32147">
        <ele>157.31</ele>
        <time>2016-05-15T07:36:27Z</time>
      </trkpt>
      <trkpt lat="48.01964" lon="3.32167">
        <ele>161.16</ele>
        <time>2016-05-15T07:36:40Z</time>
      </trkpt>
      <trkpt lat="48.01958" lon="3.32191">
        <ele>165</ele>
        <time>2016-05-15T07:36:56Z</time>
      </trkpt>
      <trkpt lat="48.01958" lon="3.32193">
        <ele>165</ele>
        <time>2016-05-15T07:36:57Z</time>
      </trkpt>
      <trkpt lat="48.0195" lon="3.32216">
        <ele>167.89</ele>
        <time>2016-05-15T07:37:13Z</time>
      </trkpt>
      <trkpt lat="48.01943" lon="3.32235">
        <ele>168.37</ele>
        <time>2016-05-15T07:37:29Z</time>
      </trkpt>
      <trkpt lat="48.01937" lon="3.32254">
        <ele>169.81</ele>
        <time>2016-05-15T07:37:44Z</time>
      </trkpt>
      <trkpt lat="48.01927" lon="3.3228">
        <ele>170.29</ele>
        <time>2016-05-15T07:38:00Z</time>
      </trkpt>
      <trkpt lat="48.0192" lon="3.32299">
        <ele>172.21</ele>
        <time>2016-05-15T07:38:14Z</time>
      </trkpt>
      <trkpt lat="48.01914" lon="3.32319">
        <ele>172.69</ele>
        <time>2016-05-15T07:38:27Z</time>
      </trkpt>
      <trkpt lat="48.01911" lon="3.32339">
        <ele>173.17</ele>
        <time>2016-05-15T07:38:42Z</time>
      </trkpt>
      <trkpt lat="48.01904" lon="3.32363">
        <ele>175.1</ele>
        <time>2016-05-15T07:38:58Z</time>
      </trkpt>
      <trkpt lat="48.019" lon="3.32382">
        <ele>177.02</ele>
        <time>2016-05-15T07:39:11Z</time>
      </trkpt>
      <trkpt lat="48.01892" lon="3.32409">
        <ele>177.5</ele>
        <time>2016-05-15T07:39:28Z</time>
      </trkpt>
      <trkpt lat="48.01884" lon="3.32428">
        <ele>177.98</ele>
        <time>2016-05-15T07:39:42Z</time>
      </trkpt>
      <trkpt lat="48.01872" lon="3.32448">
        <ele>177.02</ele>
        <time>2016-05-15T07:39:58Z</time>
      </trkpt>
      <trkpt lat="48.01868" lon="3.32453">
        <ele>176.54</ele>
        <time>2016-05-15T07:40:02Z</time>
      </trkpt>
      <trkpt lat="48.01855" lon="3.32471">
        <ele>176.54</ele>
        <time>2016-05-15T07:40:16Z</time>
      </trkpt>
      <trkpt lat="48.01841" lon="3.32482">
        <ele>174.62</ele>
        <time>2016-05-15T07:40:32Z</time>
      </trkpt>
      <trkpt lat="48.0183" lon="3.32491">
        <ele>174.62</ele>
        <time>2016-05-15T07:40:45Z</time>
      </trkpt>
      <trkpt lat="48.01825" lon="3.32497">
        <ele>177.02</ele>
        <time>2016-05-15T07:41:01Z</time>
      </trkpt>
      <trkpt lat="48.01825" lon="3.32497">
        <ele>177.02</ele>
        <time>2016-05-15T07:41:03Z</time>
      </trkpt>
      <trkpt lat="48.01825" lon="3.32492">
        <ele>179.9</ele>
        <time>2016-05-15T07:41:15Z</time>
      </trkpt>
      <trkpt lat="48.01825" lon="3.32493">
        <ele>186.15</ele>
        <time>2016-05-15T07:41:44Z</time>
      </trkpt>
      <trkpt lat="48.01823" lon="3.32495">
        <ele>187.59</ele>
        <time>2016-05-15T07:41:59Z</time>
      </trkpt>
      <trkpt lat="48.01824" lon="3.32499">
        <ele>186.15</ele>
        <time>2016-05-15T07:42:12Z</time>
      </trkpt>
      <trkpt lat="48.01815" lon="3.32511">
        <ele>183.27</ele>
        <time>2016-05-15T07:42:25Z</time>
      </trkpt>
      <trkpt lat="48.01805" lon="3.32527">
        <ele>180.38</ele>
        <time>2016-05-15T07:42:37Z</time>
      </trkpt>
      <trkpt lat="48.01794" lon="3.32545">
        <ele>178.46</ele>
        <time>2016-05-15T07:42:52Z</time>
      </trkpt>
      <trkpt lat="48.01784" lon="3.32563">
        <ele>178.94</ele>
        <time>2016-05-15T07:43:05Z</time>
      </trkpt>
      <trkpt lat="48.01771" lon="3.32586">
        <ele>179.42</ele>
        <time>2016-05-15T07:43:21Z</time>
      </trkpt>
      <trkpt lat="48.01758" lon="3.32611">
        <ele>178.94</ele>
        <time>2016-05-15T07:43:36Z</time>
      </trkpt>
      <trkpt lat="48.01748" lon="3.32638">
        <ele>178.94</ele>
        <time>2016-05-15T07:43:52Z</time>
      </trkpt>
      <trkpt lat="48.01742" lon="3.32648">
        <ele>178.46</ele>
        <time>2016-05-15T07:44:00Z</time>
      </trkpt>
      <trkpt lat="48.01732" lon="3.32669">
        <ele>180.38</ele>
        <time>2016-05-15T07:44:15Z</time>
      </trkpt>
      <trkpt lat="48.0172" lon="3.32694">
        <ele>180.38</ele>
        <time>2016-05-15T07:44:29Z</time>
      </trkpt>
      <trkpt lat="48.0171" lon="3.32717">
        <ele>184.23</ele>
        <time>2016-05-15T07:44:43Z</time>
      </trkpt>
      <trkpt lat="48.01709" lon="3.3272">
        <ele>185.19</ele>
        <time>2016-05-15T07:44:45Z</time>
      </trkpt>
      <trkpt lat="48.01695" lon="3.32755">
        <ele>187.59</ele>
        <time>2016-05-15T07:45:05Z</time>
      </trkpt>
      <trkpt lat="48.01682" lon="3.32782">
        <ele>185.19</ele>
        <time>2016-05-15T07:45:22Z</time>
      </trkpt>
      <trkpt lat="48.01667" lon="3.32811">
        <ele>182.31</ele>
        <time>2016-05-15T07:45:41Z</time>
      </trkpt>
      <trkpt lat="48.01655" lon="3.32835">
        <ele>179.9</ele>
        <time>2016-05-15T07:45:57Z</time>
      </trkpt>
      <trkpt lat="48.01643" lon="3.32858">
        <ele>180.38</ele>
        <time>2016-05-15T07:46:13Z</time>
      </trkpt>
      <trkpt lat="48.01629" lon="3.32885">
        <ele>185.19</ele>
        <time>2016-05-15T07:46:29Z</time>
      </trkpt>
      <trkpt lat="48.01627" lon="3.32888">
        <ele>185.19</ele>
        <time>2016-05-15T07:46:31Z</time>
      </trkpt>
      <trkpt lat="48.01617" lon="3.32915">
        <ele>188.56</ele>
        <time>2016-05-15T07:46:46Z</time>
      </trkpt>
      <trkpt lat="48.01616" lon="3.32919">
        <ele>188.56</ele>
        <time>2016-05-15T07:46:48Z</time>
      </trkpt>
      <trkpt lat="48.01611" lon="3.32929">
        <ele>187.11</ele>
        <time>2016-05-15T07:46:55Z</time>
      </trkpt>
      <trkpt lat="48.01595" lon="3.32953">
        <ele>183.75</ele>
        <time>2016-05-15T07:47:11Z</time>
      </trkpt>
      <trkpt lat="48.01583" lon="3.32969">
        <ele>183.27</ele>
        <time>2016-05-15T07:47:23Z</time>
      </trkpt>
      <trkpt lat="48.01576" lon="3.32978">
        <ele>183.75</ele>
        <time>2016-05-15T07:47:30Z</time>
      </trkpt>
      <trkpt lat="48.0156" lon="3.33007">
        <ele>183.27</ele>
        <time>2016-05-15T07:47:48Z</time>
      </trkpt>
      <trkpt lat="48.01543" lon="3.33031">
        <ele>180.38</ele>
        <time>2016-05-15T07:48:07Z</time>
      </trkpt>
      <trkpt lat="48.01529" lon="3.3305">
        <ele>180.38</ele>
        <time>2016-05-15T07:48:23Z</time>
      </trkpt>
      <trkpt lat="48.01516" lon="3.33069">
        <ele>179.9</ele>
        <time>2016-05-15T07:48:39Z</time>
      </trkpt>
      <trkpt lat="48.01504" lon="3.33089">
        <ele>180.38</ele>
        <time>2016-05-15T07:48:55Z</time>
      </trkpt>
      <trkpt lat="48.01489" lon="3.3311">
        <ele>179.9</ele>
        <time>2016-05-15T07:49:12Z</time>
      </trkpt>
      <trkpt lat="48.01473" lon="3.33139">
        <ele>177.5</ele>
        <time>2016-05-15T07:49:31Z</time>
      </trkpt>
      <trkpt lat="48.01467" lon="3.33149">
        <ele>178.94</ele>
        <time>2016-05-15T07:49:39Z</time>
      </trkpt>
      <trkpt lat="48.01464" lon="3.33154">
        <ele>179.9</ele>
        <time>2016-05-15T07:49:42Z</time>
      </trkpt>
      <trkpt lat="48.01461" lon="3.33158">
        <ele>179.9</ele>
        <time>2016-05-15T07:49:45Z</time>
      </trkpt>
      <trkpt lat="48.01458" lon="3.33164">
        <ele>179.9</ele>
        <time>2016-05-15T07:49:50Z</time>
      </trkpt>
      <trkpt lat="48.01443" lon="3.33184">
        <ele>176.54</ele>
        <time>2016-05-15T07:50:08Z</time>
      </trkpt>
      <trkpt lat="48.01437" lon="3.33186">
        <ele>176.06</ele>
        <time>2016-05-15T07:50:13Z</time>
      </trkpt>
      <trkpt lat="48.01431" lon="3.33181">
        <ele>174.14</ele>
        <time>2016-05-15T07:50:18Z</time>
      </trkpt>
      <trkpt lat="48.01423" lon="3.33169">
        <ele>170.29</ele>
        <time>2016-05-15T07:50:27Z</time>
      </trkpt>
      <trkpt lat="48.01406" lon="3.33155">
        <ele>165.48</ele>
        <time>2016-05-15T07:50:43Z</time>
      </trkpt>
      <trkpt lat="48.01393" lon="3.33145">
        <ele>159.24</ele>
        <time>2016-05-15T07:50:57Z</time>
      </trkpt>
      <trkpt lat="48.0138" lon="3.33131">
        <ele>152.51</ele>
        <time>2016-05-15T07:51:12Z</time>
      </trkpt>
      <trkpt lat="48.0138" lon="3.3313">
        <ele>152.03</ele>
        <time>2016-05-15T07:51:13Z</time>
      </trkpt>
      <trkpt lat="48.01367" lon="3.33102">
        <ele>144.82</ele>
        <time>2016-05-15T07:51:29Z</time>
      </trkpt>
      <trkpt lat="48.01359" lon="3.3309">
        <ele>139.53</ele>
        <time>2016-05-15T07:51:42Z</time>
      </trkpt>
      <trkpt lat="48.0135" lon="3.33072">
        <ele>132.32</ele>
        <time>2016-05-15T07:51:56Z</time>
      </trkpt>
      <trkpt lat="48.01344" lon="3.33058">
        <ele>125.11</ele>
        <time>2016-05-15T07:52:07Z</time>
      </trkpt>
      <trkpt lat="48.01335" lon="3.3304">
        <ele>116.94</ele>
        <time>2016-05-15T07:52:21Z</time>
      </trkpt>
      <trkpt lat="48.01325" lon="3.33022">
        <ele>112.13</ele>
        <time>2016-05-15T07:52:34Z</time>
      </trkpt>
      <trkpt lat="48.01306" lon="3.33004">
        <ele>116.46</ele>
        <time>2016-05-15T07:52:46Z</time>
      </trkpt>
      <trkpt lat="48.01292" lon="3.32989">
        <ele>118.86</ele>
        <time>2016-05-15T07:53:00Z</time>
      </trkpt>
      <trkpt lat="48.01289" lon="3.32986">
        <ele>119.34</ele>
        <time>2016-05-15T07:53:03Z</time>
      </trkpt>
      <trkpt lat="48.01286" lon="3.32984">
        <ele>118.86</ele>
        <time>2016-05-15T07:53:07Z</time>
      </trkpt>
      <trkpt lat="48.01269" lon="3.3297">
        <ele>114.53</ele>
        <time>2016-05-15T07:53:23Z</time>
      </trkpt>
      <trkpt lat="48.01263" lon="3.32964">
        <ele>113.57</ele>
        <time>2016-05-15T07:53:29Z</time>
      </trkpt>
      <trkpt lat="48.01258" lon="3.32961">
        <ele>114.53</ele>
        <time>2016-05-15T07:53:33Z</time>
      </trkpt>
      <trkpt lat="48.01244" lon="3.32951">
        <ele>111.65</ele>
        <time>2016-05-15T07:53:47Z</time>
      </trkpt>
      <trkpt lat="48.01234" lon="3.32937">
        <ele>105.88</ele>
        <time>2016-05-15T07:54:01Z</time>
      </trkpt>
      <trkpt lat="48.01221" lon="3.32928">
        <ele>103.48</ele>
        <time>2016-05-15T07:54:16Z</time>
      </trkpt>
      <trkpt lat="48.01205" lon="3.32913">
        <ele>99.15</ele>
        <time>2016-05-15T07:54:32Z</time>
      </trkpt>
      <trkpt lat="48.01183" lon="3.329">
        <ele>99.15</ele>
        <time>2016-05-15T07:54:48Z</time>
      </trkpt>
      <trkpt lat="48.01176" lon="3.32895">
        <ele>97.23</ele>
        <time>2016-05-15T07:54:55Z</time>
      </trkpt>
      <trkpt lat="48.01161" lon="3.32892">
        <ele>94.35</ele>
        <time>2016-05-15T07:55:09Z</time>
      </trkpt>
      <trkpt lat="48.01143" lon="3.32891">
        <ele>98.67</ele>
        <time>2016-05-15T07:55:23Z</time>
      </trkpt>
      <trkpt lat="48.01139" lon="3.3289">
        <ele>100.11</ele>
        <time>2016-05-15T07:55:26Z</time>
      </trkpt>
      <trkpt lat="48.01119" lon="3.32889">
        <ele>102.52</ele>
        <time>2016-05-15T07:55:43Z</time>
      </trkpt>
      <trkpt lat="48.01101" lon="3.32891">
        <ele>99.63</ele>
        <time>2016-05-15T07:55:59Z</time>
      </trkpt>
      <trkpt lat="48.01088" lon="3.3289">
        <ele>100.11</ele>
        <time>2016-05-15T07:56:12Z</time>
      </trkpt>
      <trkpt lat="48.01079" lon="3.32888">
        <ele>100.6</ele>
        <time>2016-05-15T07:56:20Z</time>
      </trkpt>
      <trkpt lat="48.01076" lon="3.32886">
        <ele>101.56</ele>
        <time>2016-05-15T07:56:23Z</time>
      </trkpt>
      <trkpt lat="48.01073" lon="3.32885">
        <ele>103</ele>
        <time>2016-05-15T07:56:25Z</time>
      </trkpt>
      <trkpt lat="48.01052" lon="3.32884">
        <ele>112.61</ele>
        <time>2016-05-15T07:56:42Z</time>
      </trkpt>
      <trkpt lat="48.0105" lon="3.32883">
        <ele>112.61</ele>
        <time>2016-05-15T07:56:44Z</time>
      </trkpt>
      <trkpt lat="48.01026" lon="3.3288">
        <ele>113.09</ele>
        <time>2016-05-15T07:57:04Z</time>
      </trkpt>
      <trkpt lat="48.0101" lon="3.32879">
        <ele>110.21</ele>
        <time>2016-05-15T07:57:16Z</time>
      </trkpt>
      <trkpt lat="48.01" lon="3.32879">
        <ele>109.73</ele>
        <time>2016-05-15T07:57:25Z</time>
      </trkpt>
      <trkpt lat="48.00982" lon="3.32878">
        <ele>110.21</ele>
        <time>2016-05-15T07:57:41Z</time>
      </trkpt>
      <trkpt lat="48.00969" lon="3.32876">
        <ele>108.77</ele>
        <time>2016-05-15T07:57:53Z</time>
      </trkpt>
      <trkpt lat="48.00965" lon="3.32877">
        <ele>108.29</ele>
        <time>2016-05-15T07:57:57Z</time>
      </trkpt>
      <trkpt lat="48.00958" lon="3.32889">
        <ele>106.84</ele>
        <time>2016-05-15T07:58:12Z</time>
      </trkpt>
      <trkpt lat="48.00958" lon="3.32894">
        <ele>106.36</ele>
        <time>2016-05-15T07:58:15Z</time>
      </trkpt>
      <trkpt lat="48.00957" lon="3.32901">
        <ele>108.29</ele>
        <time>2016-05-15T07:58:21Z</time>
      </trkpt>
      <trkpt lat="48.0098" lon="3.32916">
        <ele>107.32</ele>
        <time>2016-05-15T07:58:40Z</time>
      </trkpt>
      <trkpt lat="48.01002" lon="3.32934">
        <ele>108.77</ele>
        <time>2016-05-15T07:58:59Z</time>
      </trkpt>
      <trkpt lat="48.01003" lon="3.32935">
        <ele>108.77</ele>
        <time>2016-05-15T07:59:00Z</time>
      </trkpt>
      <trkpt lat="48.01022" lon="3.32952">
        <ele>109.73</ele>
        <time>2016-05-15T07:59:19Z</time>
      </trkpt>
      <trkpt lat="48.01034" lon="3.32964">
        <ele>109.73</ele>
        <time>2016-05-15T07:59:34Z</time>
      </trkpt>
      <trkpt lat="48.01052" lon="3.3298">
        <ele>108.77</ele>
        <time>2016-05-15T07:59:52Z</time>
      </trkpt>
      <trkpt lat="48.01071" lon="3.32991">
        <ele>109.25</ele>
        <time>2016-05-15T08:00:10Z</time>
      </trkpt>
      <trkpt lat="48.01082" lon="3.32995">
        <ele>111.17</ele>
        <time>2016-05-15T08:00:20Z</time>
      </trkpt>
      <trkpt lat="48.01097" lon="3.33002">
        <ele>111.17</ele>
        <time>2016-05-15T08:00:35Z</time>
      </trkpt>
      <trkpt lat="48.01114" lon="3.33007">
        <ele>113.09</ele>
        <time>2016-05-15T08:00:50Z</time>
      </trkpt>
      <trkpt lat="48.01133" lon="3.33014">
        <ele>114.05</ele>
        <time>2016-05-15T08:01:06Z</time>
      </trkpt>
      <trkpt lat="48.01144" lon="3.33019">
        <ele>115.5</ele>
        <time>2016-05-15T08:01:18Z</time>
      </trkpt>
      <trkpt lat="48.01166" lon="3.33029">
        <ele>117.42</ele>
        <time>2016-05-15T08:01:34Z</time>
      </trkpt>
      <trkpt lat="48.01182" lon="3.33053">
        <ele>120.78</ele>
        <time>2016-05-15T08:01:53Z</time>
      </trkpt>
      <trkpt lat="48.01179" lon="3.33066">
        <ele>120.78</ele>
        <time>2016-05-15T08:02:00Z</time>
      </trkpt>
      <trkpt lat="48.01162" lon="3.33088">
        <ele>116.46</ele>
        <time>2016-05-15T08:02:18Z</time>
      </trkpt>
      <trkpt lat="48.01154" lon="3.33096">
        <ele>115.5</ele>
        <time>2016-05-15T08:02:27Z</time>
      </trkpt>
      <trkpt lat="48.01141" lon="3.33116">
        <ele>112.61</ele>
        <time>2016-05-15T08:02:44Z</time>
      </trkpt>
      <trkpt lat="48.01128" lon="3.33135">
        <ele>109.73</ele>
        <time>2016-05-15T08:03:01Z</time>
      </trkpt>
      <trkpt lat="48.01117" lon="3.33149">
        <ele>109.73</ele>
        <time>2016-05-15T08:03:15Z</time>
      </trkpt>
      <trkpt lat="48.01099" lon="3.33162">
        <ele>106.36</ele>
        <time>2016-05-15T08:03:33Z</time>
      </trkpt>
      <trkpt lat="48.01089" lon="3.33174">
        <ele>103.48</ele>
        <time>2016-05-15T08:03:46Z</time>
      </trkpt>
      <trkpt lat="48.01076" lon="3.33196">
        <ele>98.19</ele>
        <time>2016-05-15T08:04:05Z</time>
      </trkpt>
      <trkpt lat="48.01073" lon="3.33199">
        <ele>97.23</ele>
        <time>2016-05-15T08:04:09Z</time>
      </trkpt>
      <trkpt lat="48.01061" lon="3.33216">
        <ele>92.42</ele>
        <time>2016-05-15T08:04:26Z</time>
      </trkpt>
      <trkpt lat="48.01058" lon="3.33222">
        <ele>91.46</ele>
        <time>2016-05-15T08:04:31Z</time>
      </trkpt>
      <trkpt lat="48.01046" lon="3.33237">
        <ele>88.58</ele>
        <time>2016-05-15T08:04:48Z</time>
      </trkpt>
      <trkpt lat="48.01046" lon="3.33239">
        <ele>88.58</ele>
        <time>2016-05-15T08:04:49Z</time>
      </trkpt>
      <trkpt lat="48.01042" lon="3.33246">
        <ele>88.1</ele>
        <time>2016-05-15T08:04:54Z</time>
      </trkpt>
      <trkpt lat="48.0103" lon="3.33265">
        <ele>86.18</ele>
        <time>2016-05-15T08:05:10Z</time>
      </trkpt>
      <trkpt lat="48.01014" lon="3.33291">
        <ele>86.18</ele>
        <time>2016-05-15T08:05:29Z</time>
      </trkpt>
      <trkpt lat="48.01006" lon="3.33305">
        <ele>84.73</ele>
        <time>2016-05-15T08:05:39Z</time>
      </trkpt>
      <trkpt lat="48.01007" lon="3.33327">
        <ele>82.81</ele>
        <time>2016-05-15T08:05:56Z</time>
      </trkpt>
      <trkpt lat="48.01027" lon="3.33346">
        <ele>87.14</ele>
        <time>2016-05-15T08:06:14Z</time>
      </trkpt>
      <trkpt lat="48.01031" lon="3.3335">
        <ele>86.18</ele>
        <time>2016-05-15T08:06:18Z</time>
      </trkpt>
      <trkpt lat="48.01042" lon="3.33367">
        <ele>82.81</ele>
        <time>2016-05-15T08:06:34Z</time>
      </trkpt>
      <trkpt lat="48.01051" lon="3.33368">
        <ele>81.85</ele>
        <time>2016-05-15T08:06:48Z</time>
      </trkpt>
      <trkpt lat="48.01049" lon="3.33366">
        <ele>82.33</ele>
        <time>2016-05-15T08:07:06Z</time>
      </trkpt>
      <trkpt lat="48.0105" lon="3.33366">
        <ele>82.33</ele>
        <time>2016-05-15T08:07:33Z</time>
      </trkpt>
      <trkpt lat="48.01052" lon="3.33369">
        <ele>83.77</ele>
        <time>2016-05-15T08:07:52Z</time>
      </trkpt>
      <trkpt lat="48.01055" lon="3.33373">
        <ele>84.73</ele>
        <time>2016-05-15T08:08:09Z</time>
      </trkpt>
      <trkpt lat="48.01052" lon="3.33372">
        <ele>85.21</ele>
        <time>2016-05-15T08:08:22Z</time>
      </trkpt>
      <trkpt lat="48.0105" lon="3.33375">
        <ele>86.18</ele>
        <time>2016-05-15T08:08:38Z</time>
      </trkpt>
      <trkpt lat="48.01052" lon="3.33374">
        <ele>84.73</ele>
        <time>2016-05-15T08:09:04Z</time>
      </trkpt>
      <trkpt lat="48.0105" lon="3.33375">
        <ele>86.18</ele>
        <time>2016-05-15T08:09:14Z</time>
      </trkpt>
      <trkpt lat="48.01049" lon="3.33374">
        <ele>87.14</ele>
        <time>2016-05-15T08:09:32Z</time>
      </trkpt>
      <trkpt lat="48.01049" lon="3.33375">
        <ele>86.18</ele>
        <time>2016-05-15T08:10:01Z</time>
      </trkpt>
      <trkpt lat="48.01051" lon="3.33375">
        <ele>85.69</ele>
        <time>2016-05-15T08:10:22Z</time>
      </trkpt>
      <trkpt lat="48.0105" lon="3.33375">
        <ele>83.77</ele>
        <time>2016-05-15T08:10:39Z</time>
      </trkpt>
      <trkpt lat="48.0105" lon="3.33378">
        <ele>82.81</ele>
        <time>2016-05-15T08:11:06Z</time>
      </trkpt>
      <trkpt lat="48.01049" lon="3.33379">
        <ele>82.33</ele>
        <time>2016-05-15T08:11:42Z</time>
      </trkpt>
      <trkpt lat="48.01052" lon="3.33376">
        <ele>81.37</ele>
        <time>2016-05-15T08:12:11Z</time>
      </trkpt>
      <trkpt lat="48.01052" lon="3.33376">
        <ele>82.81</ele>
        <time>2016-05-15T08:12:34Z</time>
      </trkpt>
      <trkpt lat="48.01052" lon="3.33375">
        <ele>81.85</ele>
        <time>2016-05-15T08:12:54Z</time>
      </trkpt>
      <trkpt lat="48.01056" lon="3.33373">
        <ele>85.21</ele>
        <time>2016-05-15T08:13:11Z</time>
      </trkpt>
      <trkpt lat="48.01051" lon="3.33374">
        <ele>84.25</ele>
        <time>2016-05-15T08:13:25Z</time>
      </trkpt>
      <trkpt lat="48.01053" lon="3.3338">
        <ele>84.73</ele>
        <time>2016-05-15T08:13:36Z</time>
      </trkpt>
      <trkpt lat="48.01053" lon="3.33381">
        <ele>85.21</ele>
        <time>2016-05-15T08:13:37Z</time>
      </trkpt>
      <trkpt lat="48.01053" lon="3.3339">
        <ele>85.21</ele>
        <time>2016-05-15T08:13:42Z</time>
      </trkpt>
      <trkpt lat="48.01068" lon="3.33414">
        <ele>85.21</ele>
        <time>2016-05-15T08:14:00Z</time>
      </trkpt>
      <trkpt lat="48.01084" lon="3.33438">
        <ele>84.73</ele>
        <time>2016-05-15T08:14:18Z</time>
      </trkpt>
      <trkpt lat="48.011" lon="3.33463">
        <ele>84.73</ele>
        <time>2016-05-15T08:14:37Z</time>
      </trkpt>
      <trkpt lat="48.01113" lon="3.33486">
        <ele>85.69</ele>
        <time>2016-05-15T08:14:53Z</time>
      </trkpt>
      <trkpt lat="48.01127" lon="3.33508">
        <ele>85.21</ele>
        <time>2016-05-15T08:15:10Z</time>
      </trkpt>
      <trkpt lat="48.01131" lon="3.33513">
        <ele>86.18</ele>
        <time>2016-05-15T08:15:14Z</time>
      </trkpt>
      <trkpt lat="48.01141" lon="3.33529">
        <ele>86.66</ele>
        <time>2016-05-15T08:15:26Z</time>
      </trkpt>
      <trkpt lat="48.01143" lon="3.33535">
        <ele>87.14</ele>
        <time>2016-05-15T08:15:30Z</time>
      </trkpt>
      <trkpt lat="48.0116" lon="3.33563">
        <ele>89.54</ele>
        <time>2016-05-15T08:15:49Z</time>
      </trkpt>
      <trkpt lat="48.01173" lon="3.33589">
        <ele>91.46</ele>
        <time>2016-05-15T08:16:06Z</time>
      </trkpt>
      <trkpt lat="48.01181" lon="3.33607">
        <ele>90.02</ele>
        <time>2016-05-15T08:16:18Z</time>
      </trkpt>
      <trkpt lat="48.01186" lon="3.33617">
        <ele>91.46</ele>
        <time>2016-05-15T08:16:25Z</time>
      </trkpt>
      <trkpt lat="48.012" lon="3.33645">
        <ele>89.54</ele>
        <time>2016-05-15T08:16:44Z</time>
      </trkpt>
      <trkpt lat="48.01215" lon="3.33673">
        <ele>91.94</ele>
        <time>2016-05-15T08:17:02Z</time>
      </trkpt>
      <trkpt lat="48.01224" lon="3.33694">
        <ele>88.1</ele>
        <time>2016-05-15T08:17:16Z</time>
      </trkpt>
      <trkpt lat="48.0123" lon="3.33706">
        <ele>89.54</ele>
        <time>2016-05-15T08:17:24Z</time>
      </trkpt>
      <trkpt lat="48.01246" lon="3.33736">
        <ele>86.66</ele>
        <time>2016-05-15T08:17:44Z</time>
      </trkpt>
      <trkpt lat="48.01259" lon="3.33765">
        <ele>89.06</ele>
        <time>2016-05-15T08:18:02Z</time>
      </trkpt>
      <trkpt lat="48.01272" lon="3.3379">
        <ele>89.06</ele>
        <time>2016-05-15T08:18:19Z</time>
      </trkpt>
      <trkpt lat="48.01286" lon="3.33815">
        <ele>90.02</ele>
        <time>2016-05-15T08:18:35Z</time>
      </trkpt>
      <trkpt lat="48.01299" lon="3.33842">
        <ele>87.14</ele>
        <time>2016-05-15T08:18:53Z</time>
      </trkpt>
      <trkpt lat="48.01312" lon="3.33862">
        <ele>90.98</ele>
        <time>2016-05-15T08:19:07Z</time>
      </trkpt>
      <trkpt lat="48.01329" lon="3.33881">
        <ele>91.46</ele>
        <time>2016-05-15T08:19:24Z</time>
      </trkpt>
      <trkpt lat="48.01346" lon="3.33903">
        <ele>90.98</ele>
        <time>2016-05-15T08:19:42Z</time>
      </trkpt>
      <trkpt lat="48.01366" lon="3.33927">
        <ele>93.87</ele>
        <time>2016-05-15T08:20:02Z</time>
      </trkpt>
      <trkpt lat="48.01384" lon="3.33946">
        <ele>93.39</ele>
        <time>2016-05-15T08:20:20Z</time>
      </trkpt>
      <trkpt lat="48.01404" lon="3.33964">
        <ele>93.87</ele>
        <time>2016-05-15T08:20:38Z</time>
      </trkpt>
      <trkpt lat="48.01407" lon="3.33966">
        <ele>93.87</ele>
        <time>2016-05-15T08:20:41Z</time>
      </trkpt>
      <trkpt lat="48.01422" lon="3.33977">
        <ele>94.35</ele>
        <time>2016-05-15T08:20:56Z</time>
      </trkpt>
      <trkpt lat="48.01427" lon="3.33983">
        <ele>94.83</ele>
        <time>2016-05-15T08:21:01Z</time>
      </trkpt>
      <trkpt lat="48.0143" lon="3.33985">
        <ele>94.83</ele>
        <time>2016-05-15T08:21:03Z</time>
      </trkpt>
      <trkpt lat="48.01435" lon="3.33991">
        <ele>96.27</ele>
        <time>2016-05-15T08:21:09Z</time>
      </trkpt>
      <trkpt lat="48.01452" lon="3.34001">
        <ele>95.31</ele>
        <time>2016-05-15T08:21:23Z</time>
      </trkpt>
      <trkpt lat="48.0147" lon="3.34015">
        <ele>96.27</ele>
        <time>2016-05-15T08:21:39Z</time>
      </trkpt>
      <trkpt lat="48.01487" lon="3.34029">
        <ele>96.27</ele>
        <time>2016-05-15T08:21:55Z</time>
      </trkpt>
      <trkpt lat="48.0151" lon="3.34045">
        <ele>97.71</ele>
        <time>2016-05-15T08:22:15Z</time>
      </trkpt>
      <trkpt lat="48.01527" lon="3.3406">
        <ele>98.67</ele>
        <time>2016-05-15T08:22:31Z</time>
      </trkpt>
      <trkpt lat="48.01547" lon="3.34076">
        <ele>100.11</ele>
        <time>2016-05-15T08:22:50Z</time>
      </trkpt>
      <trkpt lat="48.01564" lon="3.34072">
        <ele>99.63</ele>
        <time>2016-05-15T08:23:06Z</time>
      </trkpt>
      <trkpt lat="48.01578" lon="3.34058">
        <ele>100.6</ele>
        <time>2016-05-15T08:23:22Z</time>
      </trkpt>
      <trkpt lat="48.01593" lon="3.34043">
        <ele>101.08</ele>
        <time>2016-05-15T08:23:39Z</time>
      </trkpt>
      <trkpt lat="48.01608" lon="3.34028">
        <ele>101.08</ele>
        <time>2016-05-15T08:23:55Z</time>
      </trkpt>
      <trkpt lat="48.01623" lon="3.34013">
        <ele>102.52</ele>
        <time>2016-05-15T08:24:11Z</time>
      </trkpt>
      <trkpt lat="48.01638" lon="3.34">
        <ele>103.96</ele>
        <time>2016-05-15T08:24:26Z</time>
      </trkpt>
      <trkpt lat="48.01654" lon="3.33986">
        <ele>106.36</ele>
        <time>2016-05-15T08:24:44Z</time>
      </trkpt>
      <trkpt lat="48.01663" lon="3.33975">
        <ele>106.36</ele>
        <time>2016-05-15T08:24:57Z</time>
      </trkpt>
      <trkpt lat="48.01671" lon="3.33959">
        <ele>104.92</ele>
        <time>2016-05-15T08:25:11Z</time>
      </trkpt>
      <trkpt lat="48.01675" lon="3.33945">
        <ele>104.44</ele>
        <time>2016-05-15T08:25:23Z</time>
      </trkpt>
      <trkpt lat="48.01677" lon="3.33932">
        <ele>104.44</ele>
        <time>2016-05-15T08:25:32Z</time>
      </trkpt>
      <trkpt lat="48.01683" lon="3.33909">
        <ele>104.92</ele>
        <time>2016-05-15T08:25:49Z</time>
      </trkpt>
      <trkpt lat="48.01689" lon="3.33888">
        <ele>108.77</ele>
        <time>2016-05-15T08:26:03Z</time>
      </trkpt>
      <trkpt lat="48.01699" lon="3.33869">
        <ele>109.25</ele>
        <time>2016-05-15T08:26:20Z</time>
      </trkpt>
      <trkpt lat="48.0171" lon="3.33853">
        <ele>109.73</ele>
        <time>2016-05-15T08:26:35Z</time>
      </trkpt>
      <trkpt lat="48.01719" lon="3.33846">
        <ele>109.25</ele>
        <time>2016-05-15T08:26:47Z</time>
      </trkpt>
      <trkpt lat="48.01728" lon="3.33834">
        <ele>109.25</ele>
        <time>2016-05-15T08:27:00Z</time>
      </trkpt>
      <trkpt lat="48.01739" lon="3.33824">
        <ele>107.81</ele>
        <time>2016-05-15T08:27:13Z</time>
      </trkpt>
      <trkpt lat="48.01752" lon="3.33808">
        <ele>107.81</ele>
        <time>2016-05-15T08:27:28Z</time>
      </trkpt>
      <trkpt lat="48.01765" lon="3.33791">
        <ele>109.73</ele>
        <time>2016-05-15T08:27:45Z</time>
      </trkpt>
      <trkpt lat="48.01773" lon="3.33781">
        <ele>110.21</ele>
        <time>2016-05-15T08:27:58Z</time>
      </trkpt>
      <trkpt lat="48.01782" lon="3.33767">
        <ele>112.61</ele>
        <time>2016-05-15T08:28:11Z</time>
      </trkpt>
      <trkpt lat="48.01785" lon="3.33762">
        <ele>115.01</ele>
        <time>2016-05-15T08:28:22Z</time>
      </trkpt>
      <trkpt lat="48.01786" lon="3.3376">
        <ele>115.01</ele>
        <time>2016-05-15T08:28:24Z</time>
      </trkpt>
      <trkpt lat="48.01791" lon="3.33751">
        <ele>119.34</ele>
        <time>2016-05-15T08:28:37Z</time>
      </trkpt>
      <trkpt lat="48.01796" lon="3.33739">
        <ele>122.22</ele>
        <time>2016-05-15T08:28:51Z</time>
      </trkpt>
      <trkpt lat="48.01802" lon="3.33722">
        <ele>125.59</ele>
        <time>2016-05-15T08:29:05Z</time>
      </trkpt>
      <trkpt lat="48.01809" lon="3.33705">
        <ele>127.51</ele>
        <time>2016-05-15T08:29:21Z</time>
      </trkpt>
      <trkpt lat="48.01811" lon="3.337">
        <ele>128.47</ele>
        <time>2016-05-15T08:29:26Z</time>
      </trkpt>
      <trkpt lat="48.01818" lon="3.33682">
        <ele>130.4</ele>
        <time>2016-05-15T08:29:40Z</time>
      </trkpt>
      <trkpt lat="48.01822" lon="3.33664">
        <ele>136.64</ele>
        <time>2016-05-15T08:29:54Z</time>
      </trkpt>
      <trkpt lat="48.01823" lon="3.3366">
        <ele>138.09</ele>
        <time>2016-05-15T08:29:58Z</time>
      </trkpt>
      <trkpt lat="48.01837" lon="3.33641">
        <ele>138.57</ele>
        <time>2016-05-15T08:30:16Z</time>
      </trkpt>
      <trkpt lat="48.0184" lon="3.33639">
        <ele>139.05</ele>
        <time>2016-05-15T08:30:19Z</time>
      </trkpt>
      <trkpt lat="48.01851" lon="3.33632">
        <ele>139.53</ele>
        <time>2016-05-15T08:30:31Z</time>
      </trkpt>
      <trkpt lat="48.01863" lon="3.33618">
        <ele>138.57</ele>
        <time>2016-05-15T08:30:46Z</time>
      </trkpt>
      <trkpt lat="48.01876" lon="3.3361">
        <ele>137.61</ele>
        <time>2016-05-15T08:31:00Z</time>
      </trkpt>
      <trkpt lat="48.01884" lon="3.33605">
        <ele>138.57</ele>
        <time>2016-05-15T08:31:09Z</time>
      </trkpt>
      <trkpt lat="48.01886" lon="3.33604">
        <ele>139.05</ele>
        <time>2016-05-15T08:31:11Z</time>
      </trkpt>
      <trkpt lat="48.01898" lon="3.33596">
        <ele>140.49</ele>
        <time>2016-05-15T08:31:23Z</time>
      </trkpt>
      <trkpt lat="48.01901" lon="3.33594">
        <ele>141.45</ele>
        <time>2016-05-15T08:31:26Z</time>
      </trkpt>
      <trkpt lat="48.0191" lon="3.33584">
        <ele>143.37</ele>
        <time>2016-05-15T08:31:37Z</time>
      </trkpt>
      <trkpt lat="48.01918" lon="3.33576">
        <ele>146.26</ele>
        <time>2016-05-15T08:31:46Z</time>
      </trkpt>
      <trkpt lat="48.01921" lon="3.33575">
        <ele>147.7</ele>
        <time>2016-05-15T08:31:49Z</time>
      </trkpt>
      <trkpt lat="48.01936" lon="3.33567">
        <ele>150.58</ele>
        <time>2016-05-15T08:32:05Z</time>
      </trkpt>
      <trkpt lat="48.01948" lon="3.3357">
        <ele>153.47</ele>
        <time>2016-05-15T08:32:18Z</time>
      </trkpt>
      <trkpt lat="48.01951" lon="3.33569">
        <ele>154.43</ele>
        <time>2016-05-15T08:32:21Z</time>
      </trkpt>
      <trkpt lat="48.01967" lon="3.33574">
        <ele>153.95</ele>
        <time>2016-05-15T08:32:35Z</time>
      </trkpt>
      <trkpt lat="48.01973" lon="3.33578">
        <ele>153.95</ele>
        <time>2016-05-15T08:32:41Z</time>
      </trkpt>
      <trkpt lat="48.01987" lon="3.33584">
        <ele>155.87</ele>
        <time>2016-05-15T08:32:57Z</time>
      </trkpt>
      <trkpt lat="48.01991" lon="3.33586">
        <ele>155.87</ele>
        <time>2016-05-15T08:33:01Z</time>
      </trkpt>
      <trkpt lat="48.02004" lon="3.33598">
        <ele>155.87</ele>
        <time>2016-05-15T08:33:15Z</time>
      </trkpt>
      <trkpt lat="48.02013" lon="3.3361">
        <ele>154.43</ele>
        <time>2016-05-15T08:33:28Z</time>
      </trkpt>
      <trkpt lat="48.02017" lon="3.3362">
        <ele>154.91</ele>
        <time>2016-05-15T08:33:41Z</time>
      </trkpt>
      <trkpt lat="48.02018" lon="3.33622">
        <ele>162.12</ele>
        <time>2016-05-15T08:34:04Z</time>
      </trkpt>
      <trkpt lat="48.02019" lon="3.33621">
        <ele>165.48</ele>
        <time>2016-05-15T08:34:30Z</time>
      </trkpt>
      <trkpt lat="48.02022" lon="3.33619">
        <ele>163.56</ele>
        <time>2016-05-15T08:34:54Z</time>
      </trkpt>
      <trkpt lat="48.02021" lon="3.33621">
        <ele>163.56</ele>
        <time>2016-05-15T08:35:16Z</time>
      </trkpt>
      <trkpt lat="48.02021" lon="3.33623">
        <ele>164.52</ele>
        <time>2016-05-15T08:35:30Z</time>
      </trkpt>
      <trkpt lat="48.02017" lon="3.33623">
        <ele>166.45</ele>
        <time>2016-05-15T08:36:00Z</time>
      </trkpt>
      <trkpt lat="48.02016" lon="3.33625">
        <ele>167.89</ele>
        <time>2016-05-15T08:36:24Z</time>
      </trkpt>
      <trkpt lat="48.02017" lon="3.33627">
        <ele>168.37</ele>
        <time>2016-05-15T08:36:41Z</time>
      </trkpt>
      <trkpt lat="48.02026" lon="3.33648">
        <ele>167.41</ele>
        <time>2016-05-15T08:36:58Z</time>
      </trkpt>
      <trkpt lat="48.02034" lon="3.33664">
        <ele>167.41</ele>
        <time>2016-05-15T08:37:12Z</time>
      </trkpt>
      <trkpt lat="48.02044" lon="3.33683">
        <ele>167.41</ele>
        <time>2016-05-15T08:37:27Z</time>
      </trkpt>
      <trkpt lat="48.0205" lon="3.33682">
        <ele>169.33</ele>
        <time>2016-05-15T08:37:32Z</time>
      </trkpt>
      <trkpt lat="48.02052" lon="3.33678">
        <ele>170.29</ele>
        <time>2016-05-15T08:37:35Z</time>
      </trkpt>
      <trkpt lat="48.02052" lon="3.33652">
        <ele>172.69</ele>
        <time>2016-05-15T08:37:51Z</time>
      </trkpt>
      <trkpt lat="48.02052" lon="3.33646">
        <ele>173.66</ele>
        <time>2016-05-15T08:37:54Z</time>
      </trkpt>
      <trkpt lat="48.02057" lon="3.3364">
        <ele>175.1</ele>
        <time>2016-05-15T08:38:02Z</time>
      </trkpt>
      <trkpt lat="48.0207" lon="3.33663">
        <ele>174.14</ele>
        <time>2016-05-15T08:38:19Z</time>
      </trkpt>
      <trkpt lat="48.02088" lon="3.33694">
        <ele>171.25</ele>
        <time>2016-05-15T08:38:40Z</time>
      </trkpt>
      <trkpt lat="48.02103" lon="3.3372">
        <ele>173.66</ele>
        <time>2016-05-15T08:38:57Z</time>
      </trkpt>
      <trkpt lat="48.02116" lon="3.33748">
        <ele>172.69</ele>
        <time>2016-05-15T08:39:15Z</time>
      </trkpt>
      <trkpt lat="48.02123" lon="3.33768">
        <ele>173.17</ele>
        <time>2016-05-15T08:39:28Z</time>
      </trkpt>
      <trkpt lat="48.02127" lon="3.33783">
        <ele>173.66</ele>
        <time>2016-05-15T08:39:37Z</time>
      </trkpt>
      <trkpt lat="48.02137" lon="3.33809">
        <ele>173.66</ele>
        <time>2016-05-15T08:39:54Z</time>
      </trkpt>
      <trkpt lat="48.02148" lon="3.33841">
        <ele>172.69</ele>
        <time>2016-05-15T08:40:15Z</time>
      </trkpt>
      <trkpt lat="48.02156" lon="3.33865">
        <ele>171.25</ele>
        <time>2016-05-15T08:40:30Z</time>
      </trkpt>
      <trkpt lat="48.02163" lon="3.33894">
        <ele>173.66</ele>
        <time>2016-05-15T08:40:46Z</time>
      </trkpt>
      <trkpt lat="48.02169" lon="3.33922">
        <ele>174.14</ele>
        <time>2016-05-15T08:41:02Z</time>
      </trkpt>
      <trkpt lat="48.02172" lon="3.33927">
        <ele>175.1</ele>
        <time>2016-05-15T08:41:06Z</time>
      </trkpt>
      <trkpt lat="48.02174" lon="3.33942">
        <ele>177.02</ele>
        <time>2016-05-15T08:41:15Z</time>
      </trkpt>
      <trkpt lat="48.02176" lon="3.33981">
        <ele>177.98</ele>
        <time>2016-05-15T08:41:37Z</time>
      </trkpt>
      <trkpt lat="48.02176" lon="3.33984">
        <ele>177.98</ele>
        <time>2016-05-15T08:41:39Z</time>
      </trkpt>
      <trkpt lat="48.02174" lon="3.34021">
        <ele>178.94</ele>
        <time>2016-05-15T08:42:00Z</time>
      </trkpt>
      <trkpt lat="48.02176" lon="3.34058">
        <ele>181.83</ele>
        <time>2016-05-15T08:42:21Z</time>
      </trkpt>
      <trkpt lat="48.02176" lon="3.34133">
        <ele>182.79</ele>
        <time>2016-05-15T08:43:03Z</time>
      </trkpt>
      <trkpt lat="48.02175" lon="3.34167">
        <ele>183.75</ele>
        <time>2016-05-15T08:43:22Z</time>
      </trkpt>
      <trkpt lat="48.02182" lon="3.34187">
        <ele>184.71</ele>
        <time>2016-05-15T08:43:38Z</time>
      </trkpt>
      <trkpt lat="48.022" lon="3.342">
        <ele>186.15</ele>
        <time>2016-05-15T08:43:56Z</time>
      </trkpt>
      <trkpt lat="48.02219" lon="3.34213">
        <ele>185.19</ele>
        <time>2016-05-15T08:44:13Z</time>
      </trkpt>
      <trkpt lat="48.02227" lon="3.34218">
        <ele>186.15</ele>
        <time>2016-05-15T08:44:19Z</time>
      </trkpt>
      <trkpt lat="48.02248" lon="3.3423">
        <ele>186.15</ele>
        <time>2016-05-15T08:44:38Z</time>
      </trkpt>
      <trkpt lat="48.02258" lon="3.34237">
        <ele>187.11</ele>
        <time>2016-05-15T08:44:49Z</time>
      </trkpt>
      <trkpt lat="48.02274" lon="3.34248">
        <ele>186.15</ele>
        <time>2016-05-15T08:45:05Z</time>
      </trkpt>
      <trkpt lat="48.02289" lon="3.34259">
        <ele>185.67</ele>
        <time>2016-05-15T08:45:19Z</time>
      </trkpt>
      <trkpt lat="48.02295" lon="3.34264">
        <ele>185.67</ele>
        <time>2016-05-15T08:45:28Z</time>
      </trkpt>
      <trkpt lat="48.0231" lon="3.34278">
        <ele>185.67</ele>
        <time>2016-05-15T08:45:43Z</time>
      </trkpt>
      <trkpt lat="48.02316" lon="3.34299">
        <ele>186.15</ele>
        <time>2016-05-15T08:45:56Z</time>
      </trkpt>
      <trkpt lat="48.02317" lon="3.34321">
        <ele>187.59</ele>
        <time>2016-05-15T08:46:14Z</time>
      </trkpt>
      <trkpt lat="48.02317" lon="3.34341">
        <ele>188.08</ele>
        <time>2016-05-15T08:46:28Z</time>
      </trkpt>
      <trkpt lat="48.02318" lon="3.34354">
        <ele>188.08</ele>
        <time>2016-05-15T08:46:36Z</time>
      </trkpt>
      <trkpt lat="48.02319" lon="3.34366">
        <ele>188.56</ele>
        <time>2016-05-15T08:46:42Z</time>
      </trkpt>
      <trkpt lat="48.02319" lon="3.34407">
        <ele>190.96</ele>
        <time>2016-05-15T08:47:05Z</time>
      </trkpt>
      <trkpt lat="48.0232" lon="3.34438">
        <ele>190</ele>
        <time>2016-05-15T08:47:22Z</time>
      </trkpt>
      <trkpt lat="48.02321" lon="3.34482">
        <ele>190.96</ele>
        <time>2016-05-15T08:47:44Z</time>
      </trkpt>
      <trkpt lat="48.02321" lon="3.34523">
        <ele>190.48</ele>
        <time>2016-05-15T08:48:06Z</time>
      </trkpt>
      <trkpt lat="48.02322" lon="3.34534">
        <ele>190.48</ele>
        <time>2016-05-15T08:48:12Z</time>
      </trkpt>
      <trkpt lat="48.02323" lon="3.34539">
        <ele>190.48</ele>
        <time>2016-05-15T08:48:15Z</time>
      </trkpt>
      <trkpt lat="48.02342" lon="3.34541">
        <ele>190.96</ele>
        <time>2016-05-15T08:48:33Z</time>
      </trkpt>
      <trkpt lat="48.02359" lon="3.3454">
        <ele>189.52</ele>
        <time>2016-05-15T08:48:48Z</time>
      </trkpt>
      <trkpt lat="48.02382" lon="3.34539">
        <ele>190</ele>
        <time>2016-05-15T08:49:07Z</time>
      </trkpt>
      <trkpt lat="48.02408" lon="3.34536">
        <ele>188.08</ele>
        <time>2016-05-15T08:49:26Z</time>
      </trkpt>
      <trkpt lat="48.02432" lon="3.34534">
        <ele>187.11</ele>
        <time>2016-05-15T08:49:45Z</time>
      </trkpt>
      <trkpt lat="48.02456" lon="3.34532">
        <ele>183.75</ele>
        <time>2016-05-15T08:50:04Z</time>
      </trkpt>
      <trkpt lat="48.02481" lon="3.34527">
        <ele>181.83</ele>
        <time>2016-05-15T08:50:23Z</time>
      </trkpt>
      <trkpt lat="48.02485" lon="3.34526">
        <ele>182.31</ele>
        <time>2016-05-15T08:50:26Z</time>
      </trkpt>
      <trkpt lat="48.02494" lon="3.34503">
        <ele>185.19</ele>
        <time>2016-05-15T08:50:41Z</time>
      </trkpt>
      <trkpt lat="48.02494" lon="3.34501">
        <ele>185.19</ele>
        <time>2016-05-15T08:50:42Z</time>
      </trkpt>
      <trkpt lat="48.02497" lon="3.34486">
        <ele>185.67</ele>
        <time>2016-05-15T08:50:51Z</time>
      </trkpt>
      <trkpt lat="48.02504" lon="3.34453">
        <ele>188.56</ele>
        <time>2016-05-15T08:51:10Z</time>
      </trkpt>
      <trkpt lat="48.02515" lon="3.34422">
        <ele>189.52</ele>
        <time>2016-05-15T08:51:29Z</time>
      </trkpt>
      <trkpt lat="48.02515" lon="3.34421">
        <ele>190</ele>
        <time>2016-05-15T08:51:30Z</time>
      </trkpt>
      <trkpt lat="48.02518" lon="3.34412">
        <ele>190.48</ele>
        <time>2016-05-15T08:51:35Z</time>
      </trkpt>
      <trkpt lat="48.02528" lon="3.34381">
        <ele>191.44</ele>
        <time>2016-05-15T08:51:53Z</time>
      </trkpt>
      <trkpt lat="48.02539" lon="3.34352">
        <ele>190.48</ele>
        <time>2016-05-15T08:52:10Z</time>
      </trkpt>
      <trkpt lat="48.02548" lon="3.3433">
        <ele>191.44</ele>
        <time>2016-05-15T08:52:24Z</time>
      </trkpt>
      <trkpt lat="48.02558" lon="3.34303">
        <ele>191.44</ele>
        <time>2016-05-15T08:52:40Z</time>
      </trkpt>
      <trkpt lat="48.02571" lon="3.34274">
        <ele>190.96</ele>
        <time>2016-05-15T08:52:59Z</time>
      </trkpt>
      <trkpt lat="48.02584" lon="3.34248">
        <ele>193.84</ele>
        <time>2016-05-15T08:53:15Z</time>
      </trkpt>
      <trkpt lat="48.02586" lon="3.34245">
        <ele>193.84</ele>
        <time>2016-05-15T08:53:17Z</time>
      </trkpt>
      <trkpt lat="48.02591" lon="3.34237">
        <ele>193.84</ele>
        <time>2016-05-15T08:53:22Z</time>
      </trkpt>
      <trkpt lat="48.02605" lon="3.34212">
        <ele>193.84</ele>
        <time>2016-05-15T08:53:40Z</time>
      </trkpt>
      <trkpt lat="48.02619" lon="3.34191">
        <ele>193.84</ele>
        <time>2016-05-15T08:53:57Z</time>
      </trkpt>
      <trkpt lat="48.02621" lon="3.34188">
        <ele>194.32</ele>
        <time>2016-05-15T08:53:59Z</time>
      </trkpt>
      <trkpt lat="48.0263" lon="3.34178">
        <ele>194.32</ele>
        <time>2016-05-15T08:54:07Z</time>
      </trkpt>
      <trkpt lat="48.02634" lon="3.34173">
        <ele>194.32</ele>
        <time>2016-05-15T08:54:11Z</time>
      </trkpt>
      <trkpt lat="48.02648" lon="3.34147">
        <ele>194.8</ele>
        <time>2016-05-15T08:54:29Z</time>
      </trkpt>
      <trkpt lat="48.02654" lon="3.34133">
        <ele>194.8</ele>
        <time>2016-05-15T08:54:44Z</time>
      </trkpt>
      <trkpt lat="48.02661" lon="3.34118">
        <ele>196.73</ele>
        <time>2016-05-15T08:54:58Z</time>
      </trkpt>
      <trkpt lat="48.0267" lon="3.34107">
        <ele>198.65</ele>
        <time>2016-05-15T08:55:10Z</time>
      </trkpt>
      <trkpt lat="48.02686" lon="3.34089">
        <ele>201.05</ele>
        <time>2016-05-15T08:55:30Z</time>
      </trkpt>
      <trkpt lat="48.02702" lon="3.34077">
        <ele>201.53</ele>
        <time>2016-05-15T08:55:46Z</time>
      </trkpt>
      <trkpt lat="48.0272" lon="3.3406">
        <ele>200.57</ele>
        <time>2016-05-15T08:56:03Z</time>
      </trkpt>
      <trkpt lat="48.02735" lon="3.34047">
        <ele>200.57</ele>
        <time>2016-05-15T08:56:17Z</time>
      </trkpt>
      <trkpt lat="48.02746" lon="3.34034">
        <ele>202.98</ele>
        <time>2016-05-15T08:56:31Z</time>
      </trkpt>
      <trkpt lat="48.02761" lon="3.3402">
        <ele>203.94</ele>
        <time>2016-05-15T08:56:45Z</time>
      </trkpt>
      <trkpt lat="48.02773" lon="3.34013">
        <ele>203.94</ele>
        <time>2016-05-15T08:56:55Z</time>
      </trkpt>
      <trkpt lat="48.0279" lon="3.33995">
        <ele>204.9</ele>
        <time>2016-05-15T08:57:10Z</time>
      </trkpt>
      <trkpt lat="48.02805" lon="3.3398">
        <ele>207.3</ele>
        <time>2016-05-15T08:57:24Z</time>
      </trkpt>
      <trkpt lat="48.02819" lon="3.33967">
        <ele>204.9</ele>
        <time>2016-05-15T08:57:40Z</time>
      </trkpt>
      <trkpt lat="48.02832" lon="3.33956">
        <ele>202.49</ele>
        <time>2016-05-15T08:57:53Z</time>
      </trkpt>
      <trkpt lat="48.02844" lon="3.33942">
        <ele>202.01</ele>
        <time>2016-05-15T08:58:06Z</time>
      </trkpt>
      <trkpt lat="48.02845" lon="3.33941">
        <ele>202.01</ele>
        <time>2016-05-15T08:58:07Z</time>
      </trkpt>
      <trkpt lat="48.02859" lon="3.33923">
        <ele>203.46</ele>
        <time>2016-05-15T08:58:22Z</time>
      </trkpt>
      <trkpt lat="48.0286" lon="3.33922">
        <ele>203.46</ele>
        <time>2016-05-15T08:58:23Z</time>
      </trkpt>
      <trkpt lat="48.02873" lon="3.3391">
        <ele>205.38</ele>
        <time>2016-05-15T08:58:38Z</time>
      </trkpt>
      <trkpt lat="48.0289" lon="3.33896">
        <ele>203.46</ele>
        <time>2016-05-15T08:58:54Z</time>
      </trkpt>
      <trkpt lat="48.02903" lon="3.33884">
        <ele>205.38</ele>
        <time>2016-05-15T08:59:05Z</time>
      </trkpt>
      <trkpt lat="48.02906" lon="3.33881">
        <ele>205.38</ele>
        <time>2016-05-15T08:59:08Z</time>
      </trkpt>
      <trkpt lat="48.0292" lon="3.33869">
        <ele>208.26</ele>
        <time>2016-05-15T08:59:21Z</time>
      </trkpt>
      <trkpt lat="48.02934" lon="3.33853">
        <ele>208.26</ele>
        <time>2016-05-15T08:59:36Z</time>
      </trkpt>
      <trkpt lat="48.02948" lon="3.33841">
        <ele>209.7</ele>
        <time>2016-05-15T08:59:49Z</time>
      </trkpt>
      <trkpt lat="48.02964" lon="3.33823">
        <ele>214.03</ele>
        <time>2016-05-15T09:00:03Z</time>
      </trkpt>
      <trkpt lat="48.02978" lon="3.33811">
        <ele>212.11</ele>
        <time>2016-05-15T09:00:21Z</time>
      </trkpt>
      <trkpt lat="48.02997" lon="3.33795">
        <ele>213.55</ele>
        <time>2016-05-15T09:00:37Z</time>
      </trkpt>
      <trkpt lat="48.03012" lon="3.33782">
        <ele>214.99</ele>
        <time>2016-05-15T09:00:50Z</time>
      </trkpt>
      <trkpt lat="48.03026" lon="3.33769">
        <ele>216.43</ele>
        <time>2016-05-15T09:01:05Z</time>
      </trkpt>
      <trkpt lat="48.0304" lon="3.33752">
        <ele>213.55</ele>
        <time>2016-05-15T09:01:19Z</time>
      </trkpt>
      <trkpt lat="48.03053" lon="3.33739">
        <ele>211.15</ele>
        <time>2016-05-15T09:01:31Z</time>
      </trkpt>
      <trkpt lat="48.03068" lon="3.33725">
        <ele>208.26</ele>
        <time>2016-05-15T09:01:45Z</time>
      </trkpt>
      <trkpt lat="48.03078" lon="3.33717">
        <ele>206.34</ele>
        <time>2016-05-15T09:01:55Z</time>
      </trkpt>
      <trkpt lat="48.03084" lon="3.33712">
        <ele>206.34</ele>
        <time>2016-05-15T09:02:00Z</time>
      </trkpt>
      <trkpt lat="48.031" lon="3.33698">
        <ele>205.86</ele>
        <time>2016-05-15T09:02:15Z</time>
      </trkpt>
      <trkpt lat="48.03112" lon="3.33688">
        <ele>205.38</ele>
        <time>2016-05-15T09:02:26Z</time>
      </trkpt>
      <trkpt lat="48.03131" lon="3.33671">
        <ele>203.94</ele>
        <time>2016-05-15T09:02:42Z</time>
      </trkpt>
      <trkpt lat="48.03148" lon="3.33655">
        <ele>205.38</ele>
        <time>2016-05-15T09:02:58Z</time>
      </trkpt>
      <trkpt lat="48.03163" lon="3.33639">
        <ele>207.78</ele>
        <time>2016-05-15T09:03:13Z</time>
      </trkpt>
      <trkpt lat="48.03174" lon="3.33628">
        <ele>206.82</ele>
        <time>2016-05-15T09:03:23Z</time>
      </trkpt>
      <trkpt lat="48.03189" lon="3.33621">
        <ele>205.38</ele>
        <time>2016-05-15T09:03:38Z</time>
      </trkpt>
      <trkpt lat="48.03207" lon="3.33611">
        <ele>206.82</ele>
        <time>2016-05-15T09:03:53Z</time>
      </trkpt>
      <trkpt lat="48.03223" lon="3.33591">
        <ele>207.3</ele>
        <time>2016-05-15T09:04:10Z</time>
      </trkpt>
      <trkpt lat="48.0324" lon="3.33575">
        <ele>203.94</ele>
        <time>2016-05-15T09:04:28Z</time>
      </trkpt>
      <trkpt lat="48.03251" lon="3.33565">
        <ele>200.09</ele>
        <time>2016-05-15T09:04:42Z</time>
      </trkpt>
      <trkpt lat="48.0327" lon="3.33549">
        <ele>198.65</ele>
        <time>2016-05-15T09:04:57Z</time>
      </trkpt>
      <trkpt lat="48.03286" lon="3.33533">
        <ele>201.05</ele>
        <time>2016-05-15T09:05:13Z</time>
      </trkpt>
      <trkpt lat="48.03305" lon="3.33514">
        <ele>200.09</ele>
        <time>2016-05-15T09:05:30Z</time>
      </trkpt>
      <trkpt lat="48.03313" lon="3.33506">
        <ele>197.21</ele>
        <time>2016-05-15T09:05:41Z</time>
      </trkpt>
      <trkpt lat="48.03318" lon="3.335">
        <ele>199.13</ele>
        <time>2016-05-15T09:05:46Z</time>
      </trkpt>
      <trkpt lat="48.03333" lon="3.33487">
        <ele>200.09</ele>
        <time>2016-05-15T09:06:01Z</time>
      </trkpt>
      <trkpt lat="48.03349" lon="3.33473">
        <ele>198.65</ele>
        <time>2016-05-15T09:06:18Z</time>
      </trkpt>
      <trkpt lat="48.03369" lon="3.33462">
        <ele>197.21</ele>
        <time>2016-05-15T09:06:34Z</time>
      </trkpt>
      <trkpt lat="48.03377" lon="3.33457">
        <ele>195.77</ele>
        <time>2016-05-15T09:06:42Z</time>
      </trkpt>
      <trkpt lat="48.03396" lon="3.33442">
        <ele>191.92</ele>
        <time>2016-05-15T09:06:59Z</time>
      </trkpt>
      <trkpt lat="48.03414" lon="3.33432">
        <ele>191.92</ele>
        <time>2016-05-15T09:07:13Z</time>
      </trkpt>
      <trkpt lat="48.03433" lon="3.33423">
        <ele>189.52</ele>
        <time>2016-05-15T09:07:30Z</time>
      </trkpt>
      <trkpt lat="48.03453" lon="3.33415">
        <ele>187.11</ele>
        <time>2016-05-15T09:07:48Z</time>
      </trkpt>
      <trkpt lat="48.03475" lon="3.33406">
        <ele>184.23</ele>
        <time>2016-05-15T09:08:05Z</time>
      </trkpt>
      <trkpt lat="48.03502" lon="3.33394">
        <ele>179.42</ele>
        <time>2016-05-15T09:08:26Z</time>
      </trkpt>
      <trkpt lat="48.03526" lon="3.33382">
        <ele>177.02</ele>
        <time>2016-05-15T09:08:45Z</time>
      </trkpt>
      <trkpt lat="48.03547" lon="3.33371">
        <ele>174.62</ele>
        <time>2016-05-15T09:09:04Z</time>
      </trkpt>
      <trkpt lat="48.03568" lon="3.33362">
        <ele>173.66</ele>
        <time>2016-05-15T09:09:20Z</time>
      </trkpt>
      <trkpt lat="48.03589" lon="3.33359">
        <ele>171.73</ele>
        <time>2016-05-15T09:09:37Z</time>
      </trkpt>
      <trkpt lat="48.0359" lon="3.33359">
        <ele>171.73</ele>
        <time>2016-05-15T09:09:38Z</time>
      </trkpt>
      <trkpt lat="48.03614" lon="3.33355">
        <ele>172.69</ele>
        <time>2016-05-15T09:09:56Z</time>
      </trkpt>
      <trkpt lat="48.03638" lon="3.33351">
        <ele>171.25</ele>
        <time>2016-05-15T09:10:14Z</time>
      </trkpt>
      <trkpt lat="48.03663" lon="3.33348">
        <ele>170.29</ele>
        <time>2016-05-15T09:10:32Z</time>
      </trkpt>
      <trkpt lat="48.03683" lon="3.33345">
        <ele>168.85</ele>
        <time>2016-05-15T09:10:47Z</time>
      </trkpt>
      <trkpt lat="48.03707" lon="3.33344">
        <ele>168.37</ele>
        <time>2016-05-15T09:11:04Z</time>
      </trkpt>
      <trkpt lat="48.03729" lon="3.33342">
        <ele>167.41</ele>
        <time>2016-05-15T09:11:20Z</time>
      </trkpt>
      <trkpt lat="48.03754" lon="3.33337">
        <ele>166.93</ele>
        <time>2016-05-15T09:11:39Z</time>
      </trkpt>
      <trkpt lat="48.03772" lon="3.33333">
        <ele>165.48</ele>
        <time>2016-05-15T09:11:55Z</time>
      </trkpt>
      <trkpt lat="48.03794" lon="3.33326">
        <ele>165.48</ele>
        <time>2016-05-15T09:12:11Z</time>
      </trkpt>
      <trkpt lat="48.03818" lon="3.33317">
        <ele>160.2</ele>
        <time>2016-05-15T09:12:29Z</time>
      </trkpt>
      <trkpt lat="48.03837" lon="3.33309">
        <ele>158.27</ele>
        <time>2016-05-15T09:12:46Z</time>
      </trkpt>
      <trkpt lat="48.03855" lon="3.33299">
        <ele>154.91</ele>
        <time>2016-05-15T09:13:02Z</time>
      </trkpt>
      <trkpt lat="48.03871" lon="3.33294">
        <ele>152.03</ele>
        <time>2016-05-15T09:13:17Z</time>
      </trkpt>
      <trkpt lat="48.03894" lon="3.33283">
        <ele>152.99</ele>
        <time>2016-05-15T09:13:31Z</time>
      </trkpt>
      <trkpt lat="48.03919" lon="3.33273">
        <ele>155.39</ele>
        <time>2016-05-15T09:13:48Z</time>
      </trkpt>
      <trkpt lat="48.03947" lon="3.3326">
        <ele>157.79</ele>
        <time>2016-05-15T09:14:07Z</time>
      </trkpt>
      <trkpt lat="48.03965" lon="3.3325">
        <ele>158.27</ele>
        <time>2016-05-15T09:14:22Z</time>
      </trkpt>
      <trkpt lat="48.03987" lon="3.33238">
        <ele>155.87</ele>
        <time>2016-05-15T09:14:40Z</time>
      </trkpt>
      <trkpt lat="48.0401" lon="3.33221">
        <ele>152.99</ele>
        <time>2016-05-15T09:15:00Z</time>
      </trkpt>
      <trkpt lat="48.04023" lon="3.33213">
        <ele>151.06</ele>
        <time>2016-05-15T09:15:11Z</time>
      </trkpt>
      <trkpt lat="48.04041" lon="3.332">
        <ele>147.7</ele>
        <time>2016-05-15T09:15:30Z</time>
      </trkpt>
      <trkpt lat="48.04052" lon="3.33192">
        <ele>146.74</ele>
        <time>2016-05-15T09:15:40Z</time>
      </trkpt>
      <trkpt lat="48.04061" lon="3.33182">
        <ele>147.22</ele>
        <time>2016-05-15T09:15:48Z</time>
      </trkpt>
      <trkpt lat="48.04082" lon="3.33171">
        <ele>146.26</ele>
        <time>2016-05-15T09:16:04Z</time>
      </trkpt>
      <trkpt lat="48.04105" lon="3.33153">
        <ele>146.26</ele>
        <time>2016-05-15T09:16:22Z</time>
      </trkpt>
      <trkpt lat="48.04115" lon="3.33147">
        <ele>147.22</ele>
        <time>2016-05-15T09:16:31Z</time>
      </trkpt>
      <trkpt lat="48.04134" lon="3.33139">
        <ele>147.7</ele>
        <time>2016-05-15T09:16:47Z</time>
      </trkpt>
      <trkpt lat="48.04151" lon="3.3313">
        <ele>145.78</ele>
        <time>2016-05-15T09:17:02Z</time>
      </trkpt>
      <trkpt lat="48.04172" lon="3.3312">
        <ele>144.82</ele>
        <time>2016-05-15T09:17:19Z</time>
      </trkpt>
      <trkpt lat="48.04191" lon="3.33111">
        <ele>144.34</ele>
        <time>2016-05-15T09:17:36Z</time>
      </trkpt>
      <trkpt lat="48.04204" lon="3.33103">
        <ele>142.41</ele>
        <time>2016-05-15T09:17:48Z</time>
      </trkpt>
      <trkpt lat="48.04225" lon="3.33089">
        <ele>139.53</ele>
        <time>2016-05-15T09:18:07Z</time>
      </trkpt>
      <trkpt lat="48.04243" lon="3.33072">
        <ele>133.76</ele>
        <time>2016-05-15T09:18:24Z</time>
      </trkpt>
      <trkpt lat="48.04257" lon="3.33056">
        <ele>133.76</ele>
        <time>2016-05-15T09:18:38Z</time>
      </trkpt>
      <trkpt lat="48.04272" lon="3.33037">
        <ele>132.8</ele>
        <time>2016-05-15T09:18:56Z</time>
      </trkpt>
      <trkpt lat="48.04285" lon="3.3302">
        <ele>126.55</ele>
        <time>2016-05-15T09:19:11Z</time>
      </trkpt>
      <trkpt lat="48.04292" lon="3.33006">
        <ele>125.59</ele>
        <time>2016-05-15T09:19:20Z</time>
      </trkpt>
      <trkpt lat="48.04305" lon="3.32972">
        <ele>123.19</ele>
        <time>2016-05-15T09:19:39Z</time>
      </trkpt>
      <trkpt lat="48.0431" lon="3.32959">
        <ele>124.63</ele>
        <time>2016-05-15T09:19:47Z</time>
      </trkpt>
      <trkpt lat="48.0432" lon="3.32942">
        <ele>122.71</ele>
        <time>2016-05-15T09:19:59Z</time>
      </trkpt>
      <trkpt lat="48.04331" lon="3.32916">
        <ele>117.9</ele>
        <time>2016-05-15T09:20:16Z</time>
      </trkpt>
      <trkpt lat="48.04348" lon="3.32892">
        <ele>114.53</ele>
        <time>2016-05-15T09:20:34Z</time>
      </trkpt>
      <trkpt lat="48.04365" lon="3.32872">
        <ele>111.17</ele>
        <time>2016-05-15T09:20:52Z</time>
      </trkpt>
      <trkpt lat="48.04382" lon="3.32857">
        <ele>109.25</ele>
        <time>2016-05-15T09:21:10Z</time>
      </trkpt>
      <trkpt lat="48.04387" lon="3.32849">
        <ele>107.81</ele>
        <time>2016-05-15T09:21:16Z</time>
      </trkpt>
      <trkpt lat="48.044" lon="3.32833">
        <ele>105.4</ele>
        <time>2016-05-15T09:21:33Z</time>
      </trkpt>
      <trkpt lat="48.04419" lon="3.32813">
        <ele>102.04</ele>
        <time>2016-05-15T09:21:51Z</time>
      </trkpt>
      <trkpt lat="48.04433" lon="3.32795">
        <ele>102.04</ele>
        <time>2016-05-15T09:22:06Z</time>
      </trkpt>
      <trkpt lat="48.04454" lon="3.32772">
        <ele>100.6</ele>
        <time>2016-05-15T09:22:27Z</time>
      </trkpt>
      <trkpt lat="48.04475" lon="3.32751">
        <ele>101.56</ele>
        <time>2016-05-15T09:22:48Z</time>
      </trkpt>
      <trkpt lat="48.04487" lon="3.3273">
        <ele>99.15</ele>
        <time>2016-05-15T09:23:07Z</time>
      </trkpt>
      <trkpt lat="48.04491" lon="3.32706">
        <ele>99.15</ele>
        <time>2016-05-15T09:23:23Z</time>
      </trkpt>
      <trkpt lat="48.04503" lon="3.32681">
        <ele>97.71</ele>
        <time>2016-05-15T09:23:43Z</time>
      </trkpt>
      <trkpt lat="48.04508" lon="3.32673">
        <ele>95.79</ele>
        <time>2016-05-15T09:23:58Z</time>
      </trkpt>
      <trkpt lat="48.04513" lon="3.32666">
        <ele>93.87</ele>
        <time>2016-05-15T09:24:12Z</time>
      </trkpt>
      <trkpt lat="48.0452" lon="3.32651">
        <ele>93.39</ele>
        <time>2016-05-15T09:24:28Z</time>
      </trkpt>
      <trkpt lat="48.04522" lon="3.32638">
        <ele>91.46</ele>
        <time>2016-05-15T09:24:43Z</time>
      </trkpt>
      <trkpt lat="48.04514" lon="3.32615">
        <ele>87.62</ele>
        <time>2016-05-15T09:25:04Z</time>
      </trkpt>
      <trkpt lat="48.04504" lon="3.32591">
        <ele>86.66</ele>
        <time>2016-05-15T09:25:21Z</time>
      </trkpt>
      <trkpt lat="48.04495" lon="3.32561">
        <ele>82.81</ele>
        <time>2016-05-15T09:25:39Z</time>
      </trkpt>
      <trkpt lat="48.04491" lon="3.32534">
        <ele>81.37</ele>
        <time>2016-05-15T09:25:54Z</time>
      </trkpt>
      <trkpt lat="48.04492" lon="3.32532">
        <ele>81.37</ele>
        <time>2016-05-15T09:25:55Z</time>
      </trkpt>
      <trkpt lat="48.04504" lon="3.32513">
        <ele>78</ele>
        <time>2016-05-15T09:26:10Z</time>
      </trkpt>
      <trkpt lat="48.0452" lon="3.32494">
        <ele>76.56</ele>
        <time>2016-05-15T09:26:25Z</time>
      </trkpt>
      <trkpt lat="48.04533" lon="3.32482">
        <ele>76.08</ele>
        <time>2016-05-15T09:26:36Z</time>
      </trkpt>
      <trkpt lat="48.04551" lon="3.32472">
        <ele>75.6</ele>
        <time>2016-05-15T09:26:52Z</time>
      </trkpt>
      <trkpt lat="48.04564" lon="3.32471">
        <ele>73.68</ele>
        <time>2016-05-15T09:27:07Z</time>
      </trkpt>
      <trkpt lat="48.04572" lon="3.32466">
        <ele>74.16</ele>
        <time>2016-05-15T09:27:19Z</time>
      </trkpt>
      <trkpt lat="48.04581" lon="3.32463">
        <ele>73.68</ele>
        <time>2016-05-15T09:27:32Z</time>
      </trkpt>
      <trkpt lat="48.04591" lon="3.32461">
        <ele>73.2</ele>
        <time>2016-05-15T09:27:46Z</time>
      </trkpt>
      <trkpt lat="48.04598" lon="3.32457">
        <ele>74.64</ele>
        <time>2016-05-15T09:27:59Z</time>
      </trkpt>
      <trkpt lat="48.04613" lon="3.32451">
        <ele>75.12</ele>
        <time>2016-05-15T09:28:16Z</time>
      </trkpt>
      <trkpt lat="48.04616" lon="3.32447">
        <ele>73.2</ele>
        <time>2016-05-15T09:28:32Z</time>
      </trkpt>
      <trkpt lat="48.04619" lon="3.32442">
        <ele>72.24</ele>
        <time>2016-05-15T09:28:37Z</time>
      </trkpt>
      <trkpt lat="48.04617" lon="3.32431">
        <ele>74.64</ele>
        <time>2016-05-15T09:28:48Z</time>
      </trkpt>
      <trkpt lat="48.04613" lon="3.32422">
        <ele>75.6</ele>
        <time>2016-05-15T09:28:55Z</time>
      </trkpt>
      <trkpt lat="48.04601" lon="3.32397">
        <ele>77.04</ele>
        <time>2016-05-15T09:29:15Z</time>
      </trkpt>
      <trkpt lat="48.04595" lon="3.32385">
        <ele>77.04</ele>
        <time>2016-05-15T09:29:27Z</time>
      </trkpt>
      <trkpt lat="48.04588" lon="3.32364">
        <ele>76.08</ele>
        <time>2016-05-15T09:29:43Z</time>
      </trkpt>
      <trkpt lat="48.04581" lon="3.32349">
        <ele>76.08</ele>
        <time>2016-05-15T09:29:55Z</time>
      </trkpt>
      <trkpt lat="48.04575" lon="3.32346">
        <ele>76.08</ele>
        <time>2016-05-15T09:30:00Z</time>
      </trkpt>
      <trkpt lat="48.04566" lon="3.32338">
        <ele>77.04</ele>
        <time>2016-05-15T09:30:09Z</time>
      </trkpt>
      <trkpt lat="48.04561" lon="3.32329">
        <ele>76.08</ele>
        <time>2016-05-15T09:30:16Z</time>
      </trkpt>
      <trkpt lat="48.0456" lon="3.32299">
        <ele>75.12</ele>
        <time>2016-05-15T09:30:34Z</time>
      </trkpt>
      <trkpt lat="48.04556" lon="3.32288">
        <ele>76.08</ele>
        <time>2016-05-15T09:30:42Z</time>
      </trkpt>
      <trkpt lat="48.04554" lon="3.32261">
        <ele>78</ele>
        <time>2016-05-15T09:30:59Z</time>
      </trkpt>
      <trkpt lat="48.04552" lon="3.32259">
        <ele>76.56</ele>
        <time>2016-05-15T09:31:16Z</time>
      </trkpt>
      <trkpt lat="48.04551" lon="3.32258">
        <ele>77.04</ele>
        <time>2016-05-15T09:31:42Z</time>
      </trkpt>
      <trkpt lat="48.04549" lon="3.32257">
        <ele>77.52</ele>
        <time>2016-05-15T09:32:15Z</time>
      </trkpt>
      <trkpt lat="48.04552" lon="3.32256">
        <ele>75.6</ele>
        <time>2016-05-15T09:32:39Z</time>
      </trkpt>
    </trkseg>
  </trk>
</gpx>